<?xml version="1.0" encoding="UTF-8" standalone="no" ?>
<gpx xmlns="http://www.topografix.com/GPX/1/1" xmlns:xsi="http://www.w3.org/2001/XMLSchema-instance" xsi:schemaLocation="http://www.topografix.com/GPX/1/1 http://www.topografix.com/GPX/1/1/gpx.xsd" version="1.1" creator="VisuGPX - https://www.visugpx.com">
  <metadata>
    <name>2026 48 km Amicale SJDH</name>
    <desc><![CDATA[Rando VTT Amicale SJDH 2026]]></desc>
  </metadata>
  <wpt lat="45.81762" lon="3.44526">
    <ele>375</ele>
    <name><![CDATA[Point de passage 1]]></name>
  </wpt>
  <wpt lat="45.81806" lon="3.44526">
    <ele>373</ele>
    <name><![CDATA[Point de passage 2]]></name>
  </wpt>
  <trk>
    <name><![CDATA[2026 47 km Amicale SJDH]]></name>
    <trkseg>
      <trkpt lat="45.81806" lon="3.44526">
        <ele>373.9</ele>
        <time>2025-10-27T09:10:10.000Z</time>
      </trkpt>
      <trkpt lat="45.81783" lon="3.44527">
        <ele>374.8</ele>
        <time>2025-10-27T09:09:44.000Z</time>
      </trkpt>
      <trkpt lat="45.81735" lon="3.44521">
        <ele>376.5</ele>
        <time>2025-10-27T09:08:49.000Z</time>
      </trkpt>
      <trkpt lat="45.81735" lon="3.44521">
        <ele>376.5</ele>
        <time>2025-10-27T09:08:49.000Z</time>
      </trkpt>
      <trkpt lat="45.81735" lon="3.44521">
        <ele>376.5</ele>
        <time>2025-10-27T09:08:49.000Z</time>
      </trkpt>
      <trkpt lat="45.81735" lon="3.44521">
        <ele>376.5</ele>
        <time>2025-10-27T09:08:49.000Z</time>
      </trkpt>
      <trkpt lat="45.81603" lon="3.44461">
        <ele>379.3</ele>
        <time>2025-10-27T09:06:10.000Z</time>
      </trkpt>
      <trkpt lat="45.81583" lon="3.44442">
        <ele>380</ele>
        <time>2025-10-27T09:05:43.000Z</time>
      </trkpt>
      <trkpt lat="45.81583" lon="3.44442">
        <ele>380</ele>
        <time>2025-10-27T09:05:43.000Z</time>
      </trkpt>
      <trkpt lat="45.81503" lon="3.44343">
        <ele>380.6</ele>
        <time>2025-10-27T09:03:42.000Z</time>
      </trkpt>
      <trkpt lat="45.81503" lon="3.44343">
        <ele>380.6</ele>
        <time>2025-10-27T09:03:42.000Z</time>
      </trkpt>
      <trkpt lat="45.81503" lon="3.44343">
        <ele>380.6</ele>
        <time>2025-10-27T09:03:42.000Z</time>
      </trkpt>
      <trkpt lat="45.81478" lon="3.44309">
        <ele>381</ele>
        <time>2025-10-27T09:03:03.000Z</time>
      </trkpt>
      <trkpt lat="45.81451" lon="3.44269">
        <ele>381.8</ele>
        <time>2025-10-27T09:02:19.000Z</time>
      </trkpt>
      <trkpt lat="45.81451" lon="3.44269">
        <ele>381.8</ele>
        <time>2025-10-27T09:02:19.000Z</time>
      </trkpt>
      <trkpt lat="45.81451" lon="3.44269">
        <ele>381.8</ele>
        <time>2025-10-27T09:02:19.000Z</time>
      </trkpt>
      <trkpt lat="45.81437" lon="3.44247">
        <ele>381.8</ele>
        <time>2025-10-27T09:01:55.000Z</time>
      </trkpt>
      <trkpt lat="45.81435" lon="3.44245">
        <ele>381.7</ele>
        <time>2025-10-27T09:01:52.000Z</time>
      </trkpt>
      <trkpt lat="45.81513" lon="3.44359">
        <ele>380</ele>
        <time>2025-10-27T08:59:24.000Z</time>
      </trkpt>
      <trkpt lat="45.81598" lon="3.44457">
        <ele>379.5</ele>
        <time>2025-10-27T08:57:08.000Z</time>
      </trkpt>
      <trkpt lat="45.81748" lon="3.44523">
        <ele>376.1</ele>
        <time>2025-10-27T08:53:37.000Z</time>
      </trkpt>
      <trkpt lat="45.81822" lon="3.44528">
        <ele>372.8</ele>
        <time>2025-10-27T08:51:42.000Z</time>
      </trkpt>
      <trkpt lat="45.81847" lon="3.44595">
        <ele>373.9</ele>
        <time>2025-10-27T08:50:41.000Z</time>
      </trkpt>
      <trkpt lat="45.81852" lon="3.44641">
        <ele>374.3</ele>
        <time>2025-10-27T08:50:04.000Z</time>
      </trkpt>
      <trkpt lat="45.8185" lon="3.44655">
        <ele>374.2</ele>
        <time>2025-10-27T08:49:53.000Z</time>
      </trkpt>
      <trkpt lat="45.81815" lon="3.44718">
        <ele>374.1</ele>
        <time>2025-10-27T08:48:49.000Z</time>
      </trkpt>
      <trkpt lat="45.818" lon="3.44756">
        <ele>373.5</ele>
        <time>2025-10-27T08:48:04.000Z</time>
      </trkpt>
      <trkpt lat="45.81789" lon="3.44772">
        <ele>372.1</ele>
        <time>2025-10-27T08:47:46.000Z</time>
      </trkpt>
      <trkpt lat="45.81743" lon="3.4479">
        <ele>369</ele>
        <time>2025-10-27T08:46:00.000Z</time>
      </trkpt>
      <trkpt lat="45.81731" lon="3.44805">
        <ele>367.4</ele>
        <time>2025-10-27T08:45:31.000Z</time>
      </trkpt>
      <trkpt lat="45.81709" lon="3.4484">
        <ele>363</ele>
        <time>2025-10-27T08:44:12.000Z</time>
      </trkpt>
      <trkpt lat="45.81703" lon="3.44856">
        <ele>362.9</ele>
        <time>2025-10-27T08:43:57.000Z</time>
      </trkpt>
      <trkpt lat="45.81703" lon="3.44873">
        <ele>363.3</ele>
        <time>2025-10-27T08:43:44.000Z</time>
      </trkpt>
      <trkpt lat="45.81709" lon="3.44889">
        <ele>363.5</ele>
        <time>2025-10-27T08:43:29.000Z</time>
      </trkpt>
      <trkpt lat="45.81718" lon="3.44903">
        <ele>363.3</ele>
        <time>2025-10-27T08:43:14.000Z</time>
      </trkpt>
      <trkpt lat="45.81718" lon="3.44903">
        <ele>363.3</ele>
        <time>2025-10-27T08:43:14.000Z</time>
      </trkpt>
      <trkpt lat="45.81732" lon="3.44923">
        <ele>362.6</ele>
        <time>2025-10-27T08:42:41.000Z</time>
      </trkpt>
      <trkpt lat="45.81741" lon="3.44945">
        <ele>362.3</ele>
        <time>2025-10-27T08:42:21.000Z</time>
      </trkpt>
      <trkpt lat="45.81745" lon="3.44976">
        <ele>362.7</ele>
        <time>2025-10-27T08:41:56.000Z</time>
      </trkpt>
      <trkpt lat="45.81736" lon="3.45049">
        <ele>361.2</ele>
        <time>2025-10-27T08:40:36.000Z</time>
      </trkpt>
      <trkpt lat="45.81742" lon="3.45067">
        <ele>360</ele>
        <time>2025-10-27T08:40:11.000Z</time>
      </trkpt>
      <trkpt lat="45.81745" lon="3.45075">
        <ele>359.5</ele>
        <time>2025-10-27T08:39:53.000Z</time>
      </trkpt>
      <trkpt lat="45.81751" lon="3.45087">
        <ele>359.1</ele>
        <time>2025-10-27T08:39:41.000Z</time>
      </trkpt>
      <trkpt lat="45.81788" lon="3.45127">
        <ele>360.4</ele>
        <time>2025-10-27T08:38:48.000Z</time>
      </trkpt>
      <trkpt lat="45.818" lon="3.45147">
        <ele>361.6</ele>
        <time>2025-10-27T08:38:26.000Z</time>
      </trkpt>
      <trkpt lat="45.81817" lon="3.45193">
        <ele>366.3</ele>
        <time>2025-10-27T08:37:44.000Z</time>
      </trkpt>
      <trkpt lat="45.81822" lon="3.45216">
        <ele>369.2</ele>
        <time>2025-10-27T08:37:25.000Z</time>
      </trkpt>
      <trkpt lat="45.81833" lon="3.45271">
        <ele>371.8</ele>
        <time>2025-10-27T08:36:40.000Z</time>
      </trkpt>
      <trkpt lat="45.81945" lon="3.45485">
        <ele>370</ele>
        <time>2025-10-27T08:32:46.000Z</time>
      </trkpt>
      <trkpt lat="45.82005" lon="3.45626">
        <ele>370</ele>
        <time>2025-10-27T08:30:33.000Z</time>
      </trkpt>
      <trkpt lat="45.82009" lon="3.45638">
        <ele>370</ele>
        <time>2025-10-27T08:30:23.000Z</time>
      </trkpt>
      <trkpt lat="45.82005" lon="3.45626">
        <ele>370</ele>
        <time>2025-10-27T08:30:13.000Z</time>
      </trkpt>
      <trkpt lat="45.81989" lon="3.45797">
        <ele>370</ele>
        <time>2025-10-27T08:27:56.000Z</time>
      </trkpt>
      <trkpt lat="45.81982" lon="3.45805">
        <ele>370</ele>
        <time>2025-10-27T08:27:46.000Z</time>
      </trkpt>
      <trkpt lat="45.81984" lon="3.45814">
        <ele>370</ele>
        <time>2025-10-27T08:27:38.000Z</time>
      </trkpt>
      <trkpt lat="45.81968" lon="3.45838">
        <ele>370</ele>
        <time>2025-10-27T08:27:11.000Z</time>
      </trkpt>
      <trkpt lat="45.81961" lon="3.45875">
        <ele>370</ele>
        <time>2025-10-27T08:26:40.000Z</time>
      </trkpt>
      <trkpt lat="45.81973" lon="3.45976">
        <ele>369.9</ele>
        <time>2025-10-27T08:25:18.000Z</time>
      </trkpt>
      <trkpt lat="45.81941" lon="3.4603">
        <ele>369.1</ele>
        <time>2025-10-27T08:24:11.000Z</time>
      </trkpt>
      <trkpt lat="45.8193" lon="3.4604">
        <ele>369.5</ele>
        <time>2025-10-27T08:23:56.000Z</time>
      </trkpt>
      <trkpt lat="45.81893" lon="3.46057">
        <ele>370</ele>
        <time>2025-10-27T08:23:11.000Z</time>
      </trkpt>
      <trkpt lat="45.81877" lon="3.46058">
        <ele>370</ele>
        <time>2025-10-27T08:22:53.000Z</time>
      </trkpt>
      <trkpt lat="45.81754" lon="3.4603">
        <ele>367.4</ele>
        <time>2025-10-27T08:20:11.000Z</time>
      </trkpt>
      <trkpt lat="45.81701" lon="3.46011">
        <ele>357.4</ele>
        <time>2025-10-27T08:17:15.000Z</time>
      </trkpt>
      <trkpt lat="45.81668" lon="3.46014">
        <ele>356.5</ele>
        <time>2025-10-27T08:16:27.000Z</time>
      </trkpt>
      <trkpt lat="45.81663" lon="3.46007">
        <ele>357</ele>
        <time>2025-10-27T08:16:19.000Z</time>
      </trkpt>
      <trkpt lat="45.81661" lon="3.45977">
        <ele>357.4</ele>
        <time>2025-10-27T08:15:55.000Z</time>
      </trkpt>
      <trkpt lat="45.81654" lon="3.4596">
        <ele>358.1</ele>
        <time>2025-10-27T08:15:39.000Z</time>
      </trkpt>
      <trkpt lat="45.81635" lon="3.45935">
        <ele>360.9</ele>
        <time>2025-10-27T08:15:10.000Z</time>
      </trkpt>
      <trkpt lat="45.81613" lon="3.45921">
        <ele>363.8</ele>
        <time>2025-10-27T08:14:43.000Z</time>
      </trkpt>
      <trkpt lat="45.8161" lon="3.45919">
        <ele>364.1</ele>
        <time>2025-10-27T08:14:39.000Z</time>
      </trkpt>
      <trkpt lat="45.81565" lon="3.45898">
        <ele>364.9</ele>
        <time>2025-10-27T08:13:44.000Z</time>
      </trkpt>
      <trkpt lat="45.81497" lon="3.45881">
        <ele>370.4</ele>
        <time>2025-10-27T08:12:26.000Z</time>
      </trkpt>
      <trkpt lat="45.81452" lon="3.45865">
        <ele>373.6</ele>
        <time>2025-10-27T08:11:32.000Z</time>
      </trkpt>
      <trkpt lat="45.81253" lon="3.45823">
        <ele>375</ele>
        <time>2025-10-27T08:07:42.000Z</time>
      </trkpt>
      <trkpt lat="45.8118" lon="3.45799">
        <ele>376</ele>
        <time>2025-10-27T08:06:16.000Z</time>
      </trkpt>
      <trkpt lat="45.81137" lon="3.45778">
        <ele>376.1</ele>
        <time>2025-10-27T08:05:24.000Z</time>
      </trkpt>
      <trkpt lat="45.81136" lon="3.45779">
        <ele>376.1</ele>
        <time>2025-10-27T08:05:23.000Z</time>
      </trkpt>
      <trkpt lat="45.81057" lon="3.45732">
        <ele>379</ele>
        <time>2025-10-27T08:03:45.000Z</time>
      </trkpt>
      <trkpt lat="45.80947" lon="3.45637">
        <ele>379.8</ele>
        <time>2025-10-27T08:01:17.000Z</time>
      </trkpt>
      <trkpt lat="45.80939" lon="3.45623">
        <ele>379.5</ele>
        <time>2025-10-27T08:01:03.000Z</time>
      </trkpt>
      <trkpt lat="45.80917" lon="3.45621">
        <ele>380</ele>
        <time>2025-10-27T08:00:37.000Z</time>
      </trkpt>
      <trkpt lat="45.80912" lon="3.45621">
        <ele>380</ele>
        <time>2025-10-27T08:00:31.000Z</time>
      </trkpt>
      <trkpt lat="45.80912" lon="3.45621">
        <ele>380</ele>
        <time>2025-10-27T08:00:31.000Z</time>
      </trkpt>
      <trkpt lat="45.80896" lon="3.45619">
        <ele>380</ele>
        <time>2025-10-27T08:00:13.000Z</time>
      </trkpt>
      <trkpt lat="45.80861" lon="3.45667">
        <ele>380</ele>
        <time>2025-10-27T07:59:17.000Z</time>
      </trkpt>
      <trkpt lat="45.80844" lon="3.45716">
        <ele>380</ele>
        <time>2025-10-27T07:58:33.000Z</time>
      </trkpt>
      <trkpt lat="45.80819" lon="3.45701">
        <ele>380.4</ele>
        <time>2025-10-27T07:58:03.000Z</time>
      </trkpt>
      <trkpt lat="45.80616" lon="3.45763">
        <ele>382.5</ele>
        <time>2025-10-27T07:54:05.000Z</time>
      </trkpt>
      <trkpt lat="45.80607" lon="3.45773">
        <ele>382.3</ele>
        <time>2025-10-27T07:53:52.000Z</time>
      </trkpt>
      <trkpt lat="45.80558" lon="3.45852">
        <ele>382.3</ele>
        <time>2025-10-27T07:52:18.000Z</time>
      </trkpt>
      <trkpt lat="45.80546" lon="3.45868">
        <ele>382.3</ele>
        <time>2025-10-27T07:51:59.000Z</time>
      </trkpt>
      <trkpt lat="45.80546" lon="3.45868">
        <ele>382.3</ele>
        <time>2025-10-27T07:51:59.000Z</time>
      </trkpt>
      <trkpt lat="45.80534" lon="3.45883">
        <ele>382.2</ele>
        <time>2025-10-27T07:51:41.000Z</time>
      </trkpt>
      <trkpt lat="45.80512" lon="3.45924">
        <ele>381.7</ele>
        <time>2025-10-27T07:51:00.000Z</time>
      </trkpt>
      <trkpt lat="45.80505" lon="3.45962">
        <ele>379.7</ele>
        <time>2025-10-27T07:50:07.000Z</time>
      </trkpt>
      <trkpt lat="45.80509" lon="3.46009">
        <ele>379.2</ele>
        <time>2025-10-27T07:49:19.000Z</time>
      </trkpt>
      <trkpt lat="45.80547" lon="3.46137">
        <ele>382.3</ele>
        <time>2025-10-27T07:47:27.000Z</time>
      </trkpt>
      <trkpt lat="45.80549" lon="3.46212">
        <ele>382</ele>
        <time>2025-10-27T07:46:27.000Z</time>
      </trkpt>
      <trkpt lat="45.80549" lon="3.46214">
        <ele>382</ele>
        <time>2025-10-27T07:46:25.000Z</time>
      </trkpt>
      <trkpt lat="45.80552" lon="3.46307">
        <ele>382.1</ele>
        <time>2025-10-27T07:45:11.000Z</time>
      </trkpt>
      <trkpt lat="45.80555" lon="3.46316">
        <ele>382</ele>
        <time>2025-10-27T07:45:03.000Z</time>
      </trkpt>
      <trkpt lat="45.8058" lon="3.46353">
        <ele>381.7</ele>
        <time>2025-10-27T07:44:21.000Z</time>
      </trkpt>
      <trkpt lat="45.8059" lon="3.46382">
        <ele>381.8</ele>
        <time>2025-10-27T07:43:45.000Z</time>
      </trkpt>
      <trkpt lat="45.80598" lon="3.46429">
        <ele>381</ele>
        <time>2025-10-27T07:43:06.000Z</time>
      </trkpt>
      <trkpt lat="45.806" lon="3.46484">
        <ele>380.6</ele>
        <time>2025-10-27T07:42:22.000Z</time>
      </trkpt>
      <trkpt lat="45.80601" lon="3.46498">
        <ele>380.1</ele>
        <time>2025-10-27T07:42:01.000Z</time>
      </trkpt>
      <trkpt lat="45.80547" lon="3.46472">
        <ele>380.7</ele>
        <time>2025-10-27T07:40:56.000Z</time>
      </trkpt>
      <trkpt lat="45.80535" lon="3.46461">
        <ele>380.9</ele>
        <time>2025-10-27T07:40:39.000Z</time>
      </trkpt>
      <trkpt lat="45.80503" lon="3.46455">
        <ele>381.6</ele>
        <time>2025-10-27T07:40:02.000Z</time>
      </trkpt>
      <trkpt lat="45.8047" lon="3.4644">
        <ele>382.2</ele>
        <time>2025-10-27T07:39:22.000Z</time>
      </trkpt>
      <trkpt lat="45.80442" lon="3.46412">
        <ele>383.4</ele>
        <time>2025-10-27T07:38:44.000Z</time>
      </trkpt>
      <trkpt lat="45.80411" lon="3.46407">
        <ele>384.1</ele>
        <time>2025-10-27T07:38:08.000Z</time>
      </trkpt>
      <trkpt lat="45.80365" lon="3.46375">
        <ele>383.6</ele>
        <time>2025-10-27T07:37:09.000Z</time>
      </trkpt>
      <trkpt lat="45.80317" lon="3.46347">
        <ele>383.4</ele>
        <time>2025-10-27T07:36:09.000Z</time>
      </trkpt>
      <trkpt lat="45.80178" lon="3.46248">
        <ele>386.1</ele>
        <time>2025-10-27T07:33:11.000Z</time>
      </trkpt>
      <trkpt lat="45.80141" lon="3.46206">
        <ele>388.6</ele>
        <time>2025-10-27T07:32:18.000Z</time>
      </trkpt>
      <trkpt lat="45.80133" lon="3.46188">
        <ele>389.2</ele>
        <time>2025-10-27T07:32:01.000Z</time>
      </trkpt>
      <trkpt lat="45.80117" lon="3.46107">
        <ele>391.1</ele>
        <time>2025-10-27T07:30:54.000Z</time>
      </trkpt>
      <trkpt lat="45.8008" lon="3.46022">
        <ele>392.2</ele>
        <time>2025-10-27T07:29:34.000Z</time>
      </trkpt>
      <trkpt lat="45.80032" lon="3.4596">
        <ele>395.2</ele>
        <time>2025-10-27T07:28:20.000Z</time>
      </trkpt>
      <trkpt lat="45.80011" lon="3.45941">
        <ele>396.5</ele>
        <time>2025-10-27T07:27:51.000Z</time>
      </trkpt>
      <trkpt lat="45.79974" lon="3.45941">
        <ele>397.8</ele>
        <time>2025-10-27T07:27:09.000Z</time>
      </trkpt>
      <trkpt lat="45.79944" lon="3.45906">
        <ele>399</ele>
        <time>2025-10-27T07:26:26.000Z</time>
      </trkpt>
      <trkpt lat="45.79878" lon="3.45894">
        <ele>403.3</ele>
        <time>2025-10-27T07:25:10.000Z</time>
      </trkpt>
      <trkpt lat="45.79844" lon="3.45876">
        <ele>405.4</ele>
        <time>2025-10-27T07:24:29.000Z</time>
      </trkpt>
      <trkpt lat="45.79802" lon="3.45842">
        <ele>408.1</ele>
        <time>2025-10-27T07:23:33.000Z</time>
      </trkpt>
      <trkpt lat="45.79779" lon="3.45832">
        <ele>409</ele>
        <time>2025-10-27T07:23:06.000Z</time>
      </trkpt>
      <trkpt lat="45.79779" lon="3.45832">
        <ele>409</ele>
        <time>2025-10-27T07:23:06.000Z</time>
      </trkpt>
      <trkpt lat="45.79721" lon="3.45817">
        <ele>411</ele>
        <time>2025-10-27T07:21:58.000Z</time>
      </trkpt>
      <trkpt lat="45.79748" lon="3.45874">
        <ele>409.6</ele>
        <time>2025-10-27T07:20:42.000Z</time>
      </trkpt>
      <trkpt lat="45.79795" lon="3.45946">
        <ele>406.3</ele>
        <time>2025-10-27T07:18:53.000Z</time>
      </trkpt>
      <trkpt lat="45.79817" lon="3.46001">
        <ele>404.6</ele>
        <time>2025-10-27T07:17:51.000Z</time>
      </trkpt>
      <trkpt lat="45.79837" lon="3.46039">
        <ele>402.5</ele>
        <time>2025-10-27T07:16:52.000Z</time>
      </trkpt>
      <trkpt lat="45.79859" lon="3.46064">
        <ele>401.4</ele>
        <time>2025-10-27T07:16:00.000Z</time>
      </trkpt>
      <trkpt lat="45.79897" lon="3.46086">
        <ele>398.2</ele>
        <time>2025-10-27T07:14:42.000Z</time>
      </trkpt>
      <trkpt lat="45.79946" lon="3.46101">
        <ele>395.7</ele>
        <time>2025-10-27T07:13:24.000Z</time>
      </trkpt>
      <trkpt lat="45.79988" lon="3.4612">
        <ele>394.8</ele>
        <time>2025-10-27T07:12:23.000Z</time>
      </trkpt>
      <trkpt lat="45.80066" lon="3.46224">
        <ele>386.9</ele>
        <time>2025-10-27T07:08:59.000Z</time>
      </trkpt>
      <trkpt lat="45.80118" lon="3.46285">
        <ele>383</ele>
        <time>2025-10-27T07:07:01.000Z</time>
      </trkpt>
      <trkpt lat="45.801" lon="3.46309">
        <ele>383.5</ele>
        <time>2025-10-27T07:06:33.000Z</time>
      </trkpt>
      <trkpt lat="45.80089" lon="3.4637">
        <ele>387.1</ele>
        <time>2025-10-27T07:05:43.000Z</time>
      </trkpt>
      <trkpt lat="45.80103" lon="3.46439">
        <ele>387.6</ele>
        <time>2025-10-27T07:04:45.000Z</time>
      </trkpt>
      <trkpt lat="45.80129" lon="3.46602">
        <ele>385.7</ele>
        <time>2025-10-27T07:02:12.000Z</time>
      </trkpt>
      <trkpt lat="45.80133" lon="3.46687">
        <ele>384.5</ele>
        <time>2025-10-27T07:00:53.000Z</time>
      </trkpt>
      <trkpt lat="45.801" lon="3.46692">
        <ele>385.5</ele>
        <time>2025-10-27T07:00:15.000Z</time>
      </trkpt>
      <trkpt lat="45.80047" lon="3.46683">
        <ele>388.3</ele>
        <time>2025-10-27T06:59:14.000Z</time>
      </trkpt>
      <trkpt lat="45.79992" lon="3.46686">
        <ele>390.4</ele>
        <time>2025-10-27T06:58:11.000Z</time>
      </trkpt>
      <trkpt lat="45.79969" lon="3.467">
        <ele>391.2</ele>
        <time>2025-10-27T06:57:42.000Z</time>
      </trkpt>
      <trkpt lat="45.7995" lon="3.46731">
        <ele>392.3</ele>
        <time>2025-10-27T06:57:09.000Z</time>
      </trkpt>
      <trkpt lat="45.79938" lon="3.46757">
        <ele>392.5</ele>
        <time>2025-10-27T06:56:44.000Z</time>
      </trkpt>
      <trkpt lat="45.79938" lon="3.46757">
        <ele>392.5</ele>
        <time>2025-10-27T06:56:44.000Z</time>
      </trkpt>
      <trkpt lat="45.79924" lon="3.46775">
        <ele>393.5</ele>
        <time>2025-10-27T06:56:22.000Z</time>
      </trkpt>
      <trkpt lat="45.79899" lon="3.46823">
        <ele>396.3</ele>
        <time>2025-10-27T06:55:35.000Z</time>
      </trkpt>
      <trkpt lat="45.79864" lon="3.46835">
        <ele>397.9</ele>
        <time>2025-10-27T06:54:54.000Z</time>
      </trkpt>
      <trkpt lat="45.79821" lon="3.46864">
        <ele>401.8</ele>
        <time>2025-10-27T06:53:59.000Z</time>
      </trkpt>
      <trkpt lat="45.79756" lon="3.46856">
        <ele>406.4</ele>
        <time>2025-10-27T06:52:44.000Z</time>
      </trkpt>
      <trkpt lat="45.79736" lon="3.4686">
        <ele>407.5</ele>
        <time>2025-10-27T06:52:21.000Z</time>
      </trkpt>
      <trkpt lat="45.79772" lon="3.46648">
        <ele>403.6</ele>
        <time>2025-10-27T06:48:46.000Z</time>
      </trkpt>
      <trkpt lat="45.79808" lon="3.46474">
        <ele>406.9</ele>
        <time>2025-10-27T06:46:21.000Z</time>
      </trkpt>
      <trkpt lat="45.79831" lon="3.46377">
        <ele>403</ele>
        <time>2025-10-27T06:44:18.000Z</time>
      </trkpt>
      <trkpt lat="45.79833" lon="3.46335">
        <ele>402</ele>
        <time>2025-10-27T06:43:34.000Z</time>
      </trkpt>
      <trkpt lat="45.79848" lon="3.46241">
        <ele>390</ele>
        <time>2025-10-27T06:40:13.000Z</time>
      </trkpt>
      <trkpt lat="45.79848" lon="3.46224">
        <ele>388.2</ele>
        <time>2025-10-27T06:39:39.000Z</time>
      </trkpt>
      <trkpt lat="45.79848" lon="3.46224">
        <ele>388.2</ele>
        <time>2025-10-27T06:39:39.000Z</time>
      </trkpt>
      <trkpt lat="45.79834" lon="3.46205">
        <ele>388</ele>
        <time>2025-10-27T06:39:16.000Z</time>
      </trkpt>
      <trkpt lat="45.79809" lon="3.46188">
        <ele>390</ele>
        <time>2025-10-27T06:38:44.000Z</time>
      </trkpt>
      <trkpt lat="45.79722" lon="3.46178">
        <ele>401.6</ele>
        <time>2025-10-27T06:37:05.000Z</time>
      </trkpt>
      <trkpt lat="45.79711" lon="3.46171">
        <ele>403.1</ele>
        <time>2025-10-27T06:36:51.000Z</time>
      </trkpt>
      <trkpt lat="45.79711" lon="3.46171">
        <ele>403.1</ele>
        <time>2025-10-27T06:36:51.000Z</time>
      </trkpt>
      <trkpt lat="45.79686" lon="3.46133">
        <ele>404.2</ele>
        <time>2025-10-27T06:36:10.000Z</time>
      </trkpt>
      <trkpt lat="45.79622" lon="3.46099">
        <ele>409.4</ele>
        <time>2025-10-27T06:34:52.000Z</time>
      </trkpt>
      <trkpt lat="45.79588" lon="3.46084">
        <ele>411.7</ele>
        <time>2025-10-27T06:34:11.000Z</time>
      </trkpt>
      <trkpt lat="45.79558" lon="3.46084">
        <ele>412</ele>
        <time>2025-10-27T06:33:37.000Z</time>
      </trkpt>
      <trkpt lat="45.79549" lon="3.4609">
        <ele>412.3</ele>
        <time>2025-10-27T06:33:26.000Z</time>
      </trkpt>
      <trkpt lat="45.79515" lon="3.46239">
        <ele>415.4</ele>
        <time>2025-10-27T06:31:21.000Z</time>
      </trkpt>
      <trkpt lat="45.79474" lon="3.46479">
        <ele>414.9</ele>
        <time>2025-10-27T06:27:54.000Z</time>
      </trkpt>
      <trkpt lat="45.79416" lon="3.46465">
        <ele>417</ele>
        <time>2025-10-27T06:26:47.000Z</time>
      </trkpt>
      <trkpt lat="45.79357" lon="3.46461">
        <ele>420.1</ele>
        <time>2025-10-27T06:25:40.000Z</time>
      </trkpt>
      <trkpt lat="45.79232" lon="3.46481">
        <ele>422</ele>
        <time>2025-10-27T06:23:15.000Z</time>
      </trkpt>
      <trkpt lat="45.79232" lon="3.46481">
        <ele>422</ele>
        <time>2025-10-27T06:23:15.000Z</time>
      </trkpt>
      <trkpt lat="45.79222" lon="3.46486">
        <ele>422</ele>
        <time>2025-10-27T06:23:04.000Z</time>
      </trkpt>
      <trkpt lat="45.79212" lon="3.46499">
        <ele>422</ele>
        <time>2025-10-27T06:22:48.000Z</time>
      </trkpt>
      <trkpt lat="45.79197" lon="3.46836">
        <ele>420.9</ele>
        <time>2025-10-27T06:18:08.000Z</time>
      </trkpt>
      <trkpt lat="45.79193" lon="3.46859">
        <ele>420.1</ele>
        <time>2025-10-27T06:17:49.000Z</time>
      </trkpt>
      <trkpt lat="45.79191" lon="3.46878">
        <ele>419.4</ele>
        <time>2025-10-27T06:17:24.000Z</time>
      </trkpt>
      <trkpt lat="45.79198" lon="3.46916">
        <ele>417.9</ele>
        <time>2025-10-27T06:16:32.000Z</time>
      </trkpt>
      <trkpt lat="45.7916" lon="3.46917">
        <ele>418</ele>
        <time>2025-10-27T06:15:48.000Z</time>
      </trkpt>
      <trkpt lat="45.79112" lon="3.46909">
        <ele>418</ele>
        <time>2025-10-27T06:14:53.000Z</time>
      </trkpt>
      <trkpt lat="45.79033" lon="3.46919">
        <ele>420.6</ele>
        <time>2025-10-27T06:13:22.000Z</time>
      </trkpt>
      <trkpt lat="45.78951" lon="3.46918">
        <ele>422</ele>
        <time>2025-10-27T06:11:48.000Z</time>
      </trkpt>
      <trkpt lat="45.78924" lon="3.46914">
        <ele>422</ele>
        <time>2025-10-27T06:11:17.000Z</time>
      </trkpt>
      <trkpt lat="45.78876" lon="3.46896">
        <ele>422</ele>
        <time>2025-10-27T06:10:20.000Z</time>
      </trkpt>
      <trkpt lat="45.78842" lon="3.46883">
        <ele>422</ele>
        <time>2025-10-27T06:09:40.000Z</time>
      </trkpt>
      <trkpt lat="45.78771" lon="3.46855">
        <ele>422.8</ele>
        <time>2025-10-27T06:08:16.000Z</time>
      </trkpt>
      <trkpt lat="45.78753" lon="3.46853">
        <ele>422.4</ele>
        <time>2025-10-27T06:07:45.000Z</time>
      </trkpt>
      <trkpt lat="45.78689" lon="3.46862">
        <ele>423</ele>
        <time>2025-10-27T06:06:32.000Z</time>
      </trkpt>
      <trkpt lat="45.78662" lon="3.46842">
        <ele>422.8</ele>
        <time>2025-10-27T06:05:56.000Z</time>
      </trkpt>
      <trkpt lat="45.7859" lon="3.46766">
        <ele>421.2</ele>
        <time>2025-10-27T06:03:53.000Z</time>
      </trkpt>
      <trkpt lat="45.78581" lon="3.46751">
        <ele>421</ele>
        <time>2025-10-27T06:03:37.000Z</time>
      </trkpt>
      <trkpt lat="45.7857" lon="3.46721">
        <ele>421</ele>
        <time>2025-10-27T06:03:10.000Z</time>
      </trkpt>
      <trkpt lat="45.78556" lon="3.46711">
        <ele>421</ele>
        <time>2025-10-27T06:02:53.000Z</time>
      </trkpt>
      <trkpt lat="45.78548" lon="3.46712">
        <ele>421.1</ele>
        <time>2025-10-27T06:02:44.000Z</time>
      </trkpt>
      <trkpt lat="45.7853" lon="3.46729">
        <ele>421</ele>
        <time>2025-10-27T06:02:19.000Z</time>
      </trkpt>
      <trkpt lat="45.78521" lon="3.46728">
        <ele>421.2</ele>
        <time>2025-10-27T06:02:09.000Z</time>
      </trkpt>
      <trkpt lat="45.78507" lon="3.46713">
        <ele>421.6</ele>
        <time>2025-10-27T06:01:49.000Z</time>
      </trkpt>
      <trkpt lat="45.78492" lon="3.46683">
        <ele>421</ele>
        <time>2025-10-27T06:01:09.000Z</time>
      </trkpt>
      <trkpt lat="45.78485" lon="3.4668">
        <ele>421</ele>
        <time>2025-10-27T06:01:01.000Z</time>
      </trkpt>
      <trkpt lat="45.78466" lon="3.46682">
        <ele>421</ele>
        <time>2025-10-27T06:00:40.000Z</time>
      </trkpt>
      <trkpt lat="45.78394" lon="3.46692">
        <ele>422</ele>
        <time>2025-10-27T05:59:17.000Z</time>
      </trkpt>
      <trkpt lat="45.7838" lon="3.46693">
        <ele>422</ele>
        <time>2025-10-27T05:59:00.000Z</time>
      </trkpt>
      <trkpt lat="45.78334" lon="3.46696">
        <ele>422.9</ele>
        <time>2025-10-27T05:58:08.000Z</time>
      </trkpt>
      <trkpt lat="45.78284" lon="3.46692">
        <ele>423</ele>
        <time>2025-10-27T05:57:10.000Z</time>
      </trkpt>
      <trkpt lat="45.78213" lon="3.4664">
        <ele>420</ele>
        <time>2025-10-27T05:54:58.000Z</time>
      </trkpt>
      <trkpt lat="45.78198" lon="3.46558">
        <ele>418.5</ele>
        <time>2025-10-27T05:53:50.000Z</time>
      </trkpt>
      <trkpt lat="45.78192" lon="3.46505">
        <ele>417.7</ele>
        <time>2025-10-27T05:52:57.000Z</time>
      </trkpt>
      <trkpt lat="45.78191" lon="3.46483">
        <ele>417.5</ele>
        <time>2025-10-27T05:52:39.000Z</time>
      </trkpt>
      <trkpt lat="45.78224" lon="3.46395">
        <ele>421.2</ele>
        <time>2025-10-27T05:51:19.000Z</time>
      </trkpt>
      <trkpt lat="45.783" lon="3.46224">
        <ele>419.5</ele>
        <time>2025-10-27T05:48:26.000Z</time>
      </trkpt>
      <trkpt lat="45.78334" lon="3.46148">
        <ele>421.4</ele>
        <time>2025-10-27T05:47:14.000Z</time>
      </trkpt>
      <trkpt lat="45.78349" lon="3.46114">
        <ele>421.3</ele>
        <time>2025-10-27T05:46:42.000Z</time>
      </trkpt>
      <trkpt lat="45.78294" lon="3.46003">
        <ele>406.9</ele>
        <time>2025-10-27T05:42:19.000Z</time>
      </trkpt>
      <trkpt lat="45.78258" lon="3.45938">
        <ele>399.1</ele>
        <time>2025-10-27T05:39:51.000Z</time>
      </trkpt>
      <trkpt lat="45.78177" lon="3.45765">
        <ele>379.8</ele>
        <time>2025-10-27T05:33:49.000Z</time>
      </trkpt>
      <trkpt lat="45.78179" lon="3.45742">
        <ele>378.4</ele>
        <time>2025-10-27T05:33:20.000Z</time>
      </trkpt>
      <trkpt lat="45.78173" lon="3.45699">
        <ele>375.7</ele>
        <time>2025-10-27T05:32:14.000Z</time>
      </trkpt>
      <trkpt lat="45.7818" lon="3.45672">
        <ele>375.2</ele>
        <time>2025-10-27T05:31:41.000Z</time>
      </trkpt>
      <trkpt lat="45.78196" lon="3.45649">
        <ele>376.1</ele>
        <time>2025-10-27T05:31:16.000Z</time>
      </trkpt>
      <trkpt lat="45.78187" lon="3.45633">
        <ele>375.7</ele>
        <time>2025-10-27T05:31:00.000Z</time>
      </trkpt>
      <trkpt lat="45.78184" lon="3.45611">
        <ele>376.2</ele>
        <time>2025-10-27T05:30:42.000Z</time>
      </trkpt>
      <trkpt lat="45.78204" lon="3.45567">
        <ele>377.7</ele>
        <time>2025-10-27T05:30:00.000Z</time>
      </trkpt>
      <trkpt lat="45.78228" lon="3.45494">
        <ele>377.2</ele>
        <time>2025-10-27T05:28:46.000Z</time>
      </trkpt>
      <trkpt lat="45.78242" lon="3.45332">
        <ele>374</ele>
        <time>2025-10-27T05:26:05.000Z</time>
      </trkpt>
      <trkpt lat="45.7823" lon="3.45317">
        <ele>373.4</ele>
        <time>2025-10-27T05:25:37.000Z</time>
      </trkpt>
      <trkpt lat="45.78213" lon="3.45308">
        <ele>372.4</ele>
        <time>2025-10-27T05:25:06.000Z</time>
      </trkpt>
      <trkpt lat="45.78201" lon="3.45309">
        <ele>371.6</ele>
        <time>2025-10-27T05:24:52.000Z</time>
      </trkpt>
      <trkpt lat="45.78187" lon="3.45319">
        <ele>371.2</ele>
        <time>2025-10-27T05:24:23.000Z</time>
      </trkpt>
      <trkpt lat="45.78143" lon="3.45361">
        <ele>371</ele>
        <time>2025-10-27T05:23:23.000Z</time>
      </trkpt>
      <trkpt lat="45.78123" lon="3.45373">
        <ele>371</ele>
        <time>2025-10-27T05:22:57.000Z</time>
      </trkpt>
      <trkpt lat="45.78114" lon="3.45363">
        <ele>371</ele>
        <time>2025-10-27T05:22:44.000Z</time>
      </trkpt>
      <trkpt lat="45.78095" lon="3.45383">
        <ele>371.6</ele>
        <time>2025-10-27T05:22:17.000Z</time>
      </trkpt>
      <trkpt lat="45.78083" lon="3.45375">
        <ele>372</ele>
        <time>2025-10-27T05:22:02.000Z</time>
      </trkpt>
      <trkpt lat="45.78082" lon="3.45361">
        <ele>372.1</ele>
        <time>2025-10-27T05:21:51.000Z</time>
      </trkpt>
      <trkpt lat="45.78087" lon="3.45227">
        <ele>373.7</ele>
        <time>2025-10-27T05:20:04.000Z</time>
      </trkpt>
      <trkpt lat="45.78057" lon="3.45101">
        <ele>372.9</ele>
        <time>2025-10-27T05:18:07.000Z</time>
      </trkpt>
      <trkpt lat="45.78041" lon="3.44998">
        <ele>372</ele>
        <time>2025-10-27T05:16:33.000Z</time>
      </trkpt>
      <trkpt lat="45.78035" lon="3.44977">
        <ele>371.8</ele>
        <time>2025-10-27T05:16:14.000Z</time>
      </trkpt>
      <trkpt lat="45.7803" lon="3.45007">
        <ele>372</ele>
        <time>2025-10-27T05:15:49.000Z</time>
      </trkpt>
      <trkpt lat="45.78005" lon="3.451">
        <ele>373</ele>
        <time>2025-10-27T05:14:30.000Z</time>
      </trkpt>
      <trkpt lat="45.77989" lon="3.45228">
        <ele>375</ele>
        <time>2025-10-27T05:12:46.000Z</time>
      </trkpt>
      <trkpt lat="45.77982" lon="3.45258">
        <ele>375</ele>
        <time>2025-10-27T05:12:22.000Z</time>
      </trkpt>
      <trkpt lat="45.77958" lon="3.45328">
        <ele>375.9</ele>
        <time>2025-10-27T05:11:19.000Z</time>
      </trkpt>
      <trkpt lat="45.77883" lon="3.45498">
        <ele>377.2</ele>
        <time>2025-10-27T05:08:39.000Z</time>
      </trkpt>
      <trkpt lat="45.77876" lon="3.45522">
        <ele>377.5</ele>
        <time>2025-10-27T05:08:19.000Z</time>
      </trkpt>
      <trkpt lat="45.77862" lon="3.45665">
        <ele>379</ele>
        <time>2025-10-27T05:06:23.000Z</time>
      </trkpt>
      <trkpt lat="45.77832" lon="3.45799">
        <ele>381</ele>
        <time>2025-10-27T05:04:31.000Z</time>
      </trkpt>
      <trkpt lat="45.77825" lon="3.45928">
        <ele>382.1</ele>
        <time>2025-10-27T05:02:48.000Z</time>
      </trkpt>
      <trkpt lat="45.77822" lon="3.45939">
        <ele>382.3</ele>
        <time>2025-10-27T05:02:38.000Z</time>
      </trkpt>
      <trkpt lat="45.77576" lon="3.46265">
        <ele>383</ele>
        <time>2025-10-27T04:56:14.000Z</time>
      </trkpt>
      <trkpt lat="45.77526" lon="3.46327">
        <ele>380.2</ele>
        <time>2025-10-27T04:54:38.000Z</time>
      </trkpt>
      <trkpt lat="45.77496" lon="3.46357">
        <ele>381</ele>
        <time>2025-10-27T04:53:56.000Z</time>
      </trkpt>
      <trkpt lat="45.77486" lon="3.46378">
        <ele>382.7</ele>
        <time>2025-10-27T04:53:36.000Z</time>
      </trkpt>
      <trkpt lat="45.77478" lon="3.464">
        <ele>384.2</ele>
        <time>2025-10-27T04:53:16.000Z</time>
      </trkpt>
      <trkpt lat="45.77477" lon="3.46406">
        <ele>384.4</ele>
        <time>2025-10-27T04:53:12.000Z</time>
      </trkpt>
      <trkpt lat="45.77477" lon="3.46406">
        <ele>384.4</ele>
        <time>2025-10-27T04:53:12.000Z</time>
      </trkpt>
      <trkpt lat="45.77457" lon="3.46521">
        <ele>387.5</ele>
        <time>2025-10-27T04:51:37.000Z</time>
      </trkpt>
      <trkpt lat="45.77439" lon="3.4657">
        <ele>388.1</ele>
        <time>2025-10-27T04:50:52.000Z</time>
      </trkpt>
      <trkpt lat="45.77423" lon="3.46593">
        <ele>388.6</ele>
        <time>2025-10-27T04:50:26.000Z</time>
      </trkpt>
      <trkpt lat="45.77341" lon="3.46688">
        <ele>390.3</ele>
        <time>2025-10-27T04:48:26.000Z</time>
      </trkpt>
      <trkpt lat="45.77285" lon="3.4673">
        <ele>392</ele>
        <time>2025-10-27T04:47:14.000Z</time>
      </trkpt>
      <trkpt lat="45.77248" lon="3.46763">
        <ele>393</ele>
        <time>2025-10-27T04:46:23.000Z</time>
      </trkpt>
      <trkpt lat="45.77212" lon="3.46819">
        <ele>394</ele>
        <time>2025-10-27T04:45:23.000Z</time>
      </trkpt>
      <trkpt lat="45.77188" lon="3.46867">
        <ele>393.8</ele>
        <time>2025-10-27T04:44:36.000Z</time>
      </trkpt>
      <trkpt lat="45.77176" lon="3.4692">
        <ele>394.8</ele>
        <time>2025-10-27T04:43:52.000Z</time>
      </trkpt>
      <trkpt lat="45.77155" lon="3.46978">
        <ele>396.4</ele>
        <time>2025-10-27T04:43:00.000Z</time>
      </trkpt>
      <trkpt lat="45.77092" lon="3.47132">
        <ele>398.9</ele>
        <time>2025-10-27T04:40:38.000Z</time>
      </trkpt>
      <trkpt lat="45.77057" lon="3.47208">
        <ele>400</ele>
        <time>2025-10-27T04:39:25.000Z</time>
      </trkpt>
      <trkpt lat="45.7705" lon="3.47235">
        <ele>400.7</ele>
        <time>2025-10-27T04:39:02.000Z</time>
      </trkpt>
      <trkpt lat="45.77052" lon="3.47292">
        <ele>401.6</ele>
        <time>2025-10-27T04:38:17.000Z</time>
      </trkpt>
      <trkpt lat="45.77028" lon="3.47394">
        <ele>402</ele>
        <time>2025-10-27T04:36:51.000Z</time>
      </trkpt>
      <trkpt lat="45.77026" lon="3.4744">
        <ele>402.9</ele>
        <time>2025-10-27T04:36:14.000Z</time>
      </trkpt>
      <trkpt lat="45.77028" lon="3.47475">
        <ele>403</ele>
        <time>2025-10-27T04:35:46.000Z</time>
      </trkpt>
      <trkpt lat="45.76984" lon="3.47508">
        <ele>406.9</ele>
        <time>2025-10-27T04:34:49.000Z</time>
      </trkpt>
      <trkpt lat="45.76984" lon="3.47509">
        <ele>406.9</ele>
        <time>2025-10-27T04:34:49.000Z</time>
      </trkpt>
      <trkpt lat="45.76927" lon="3.47546">
        <ele>412.1</ele>
        <time>2025-10-27T04:33:38.000Z</time>
      </trkpt>
      <trkpt lat="45.769" lon="3.47555">
        <ele>414.8</ele>
        <time>2025-10-27T04:33:06.000Z</time>
      </trkpt>
      <trkpt lat="45.76772" lon="3.47575">
        <ele>430</ele>
        <time>2025-10-27T04:30:38.000Z</time>
      </trkpt>
      <trkpt lat="45.7664" lon="3.47568">
        <ele>444.9</ele>
        <time>2025-10-27T04:28:07.000Z</time>
      </trkpt>
      <trkpt lat="45.76557" lon="3.47588">
        <ele>454.8</ele>
        <time>2025-10-27T04:26:30.000Z</time>
      </trkpt>
      <trkpt lat="45.76497" lon="3.47626">
        <ele>461.9</ele>
        <time>2025-10-27T04:25:15.000Z</time>
      </trkpt>
      <trkpt lat="45.76475" lon="3.47629">
        <ele>465</ele>
        <time>2025-10-27T04:24:49.000Z</time>
      </trkpt>
      <trkpt lat="45.76355" lon="3.47611">
        <ele>480.2</ele>
        <time>2025-10-27T04:22:31.000Z</time>
      </trkpt>
      <trkpt lat="45.76305" lon="3.47624">
        <ele>483.5</ele>
        <time>2025-10-27T04:21:32.000Z</time>
      </trkpt>
      <trkpt lat="45.76305" lon="3.47624">
        <ele>483.5</ele>
        <time>2025-10-27T04:21:32.000Z</time>
      </trkpt>
      <trkpt lat="45.76305" lon="3.47624">
        <ele>483.5</ele>
        <time>2025-10-27T04:21:32.000Z</time>
      </trkpt>
      <trkpt lat="45.76282" lon="3.4763">
        <ele>485.4</ele>
        <time>2025-10-27T04:21:06.000Z</time>
      </trkpt>
      <trkpt lat="45.76283" lon="3.47662">
        <ele>487.1</ele>
        <time>2025-10-27T04:20:40.000Z</time>
      </trkpt>
      <trkpt lat="45.76274" lon="3.47702">
        <ele>486.8</ele>
        <time>2025-10-27T04:20:06.000Z</time>
      </trkpt>
      <trkpt lat="45.76243" lon="3.47778">
        <ele>485.2</ele>
        <time>2025-10-27T04:18:36.000Z</time>
      </trkpt>
      <trkpt lat="45.76196" lon="3.47829">
        <ele>484</ele>
        <time>2025-10-27T04:17:18.000Z</time>
      </trkpt>
      <trkpt lat="45.76251" lon="3.48038">
        <ele>487</ele>
        <time>2025-10-27T04:14:20.000Z</time>
      </trkpt>
      <trkpt lat="45.76276" lon="3.48066">
        <ele>486.6</ele>
        <time>2025-10-27T04:13:44.000Z</time>
      </trkpt>
      <trkpt lat="45.7632" lon="3.48139">
        <ele>479.4</ele>
        <time>2025-10-27T04:11:15.000Z</time>
      </trkpt>
      <trkpt lat="45.76325" lon="3.48149">
        <ele>479.2</ele>
        <time>2025-10-27T04:11:05.000Z</time>
      </trkpt>
      <trkpt lat="45.76325" lon="3.48149">
        <ele>479.2</ele>
        <time>2025-10-27T04:11:05.000Z</time>
      </trkpt>
      <trkpt lat="45.76349" lon="3.48192">
        <ele>476.7</ele>
        <time>2025-10-27T04:09:50.000Z</time>
      </trkpt>
      <trkpt lat="45.76423" lon="3.48312">
        <ele>473.3</ele>
        <time>2025-10-27T04:07:01.000Z</time>
      </trkpt>
      <trkpt lat="45.76446" lon="3.48338">
        <ele>470</ele>
        <time>2025-10-27T04:05:56.000Z</time>
      </trkpt>
      <trkpt lat="45.76602" lon="3.48593">
        <ele>446.8</ele>
        <time>2025-10-27T03:57:28.000Z</time>
      </trkpt>
      <trkpt lat="45.7669" lon="3.4869">
        <ele>431.4</ele>
        <time>2025-10-27T03:52:37.000Z</time>
      </trkpt>
      <trkpt lat="45.76727" lon="3.48723">
        <ele>426.4</ele>
        <time>2025-10-27T03:50:56.000Z</time>
      </trkpt>
      <trkpt lat="45.76694" lon="3.48708">
        <ele>429.6</ele>
        <time>2025-10-27T03:50:17.000Z</time>
      </trkpt>
      <trkpt lat="45.76694" lon="3.48708">
        <ele>429.6</ele>
        <time>2025-10-27T03:50:17.000Z</time>
      </trkpt>
      <trkpt lat="45.76694" lon="3.48708">
        <ele>429.6</ele>
        <time>2025-10-27T03:50:17.000Z</time>
      </trkpt>
      <trkpt lat="45.76727" lon="3.48723">
        <ele>426.4</ele>
        <time>2025-10-27T03:49:07.000Z</time>
      </trkpt>
      <trkpt lat="45.76745" lon="3.48735">
        <ele>423.5</ele>
        <time>2025-10-27T03:48:23.000Z</time>
      </trkpt>
      <trkpt lat="45.76828" lon="3.48746">
        <ele>413.9</ele>
        <time>2025-10-27T03:44:55.000Z</time>
      </trkpt>
      <trkpt lat="45.76881" lon="3.48732">
        <ele>405.8</ele>
        <time>2025-10-27T03:42:41.000Z</time>
      </trkpt>
      <trkpt lat="45.76881" lon="3.48732">
        <ele>405.8</ele>
        <time>2025-10-27T03:42:41.000Z</time>
      </trkpt>
      <trkpt lat="45.76902" lon="3.48727">
        <ele>403.4</ele>
        <time>2025-10-27T03:41:56.000Z</time>
      </trkpt>
      <trkpt lat="45.76915" lon="3.4874">
        <ele>401.5</ele>
        <time>2025-10-27T03:41:18.000Z</time>
      </trkpt>
      <trkpt lat="45.76918" lon="3.48765">
        <ele>399</ele>
        <time>2025-10-27T03:41:19.000Z</time>
      </trkpt>
      <trkpt lat="45.76917" lon="3.48765">
        <ele>396.75</ele>
        <time>2025-10-27T03:41:20.000Z</time>
      </trkpt>
      <trkpt lat="45.76918" lon="3.48765">
        <ele>396.75</ele>
        <time>2025-10-27T03:41:21.000Z</time>
      </trkpt>
      <trkpt lat="45.76902" lon="3.48796">
        <ele>395</ele>
        <time>2025-10-27T03:41:22.000Z</time>
      </trkpt>
      <trkpt lat="45.76878" lon="3.48825">
        <ele>394.75</ele>
        <time>2025-10-27T03:41:23.000Z</time>
      </trkpt>
      <trkpt lat="45.76836" lon="3.48881">
        <ele>387</ele>
        <time>2025-10-27T03:41:24.000Z</time>
      </trkpt>
      <trkpt lat="45.768" lon="3.48913">
        <ele>383.75</ele>
        <time>2025-10-27T03:41:25.000Z</time>
      </trkpt>
      <trkpt lat="45.76771" lon="3.48952">
        <ele>378.75</ele>
        <time>2025-10-27T03:41:26.000Z</time>
      </trkpt>
      <trkpt lat="45.76767" lon="3.48957">
        <ele>378</ele>
        <time>2025-10-27T03:41:27.000Z</time>
      </trkpt>
      <trkpt lat="45.76684" lon="3.48995">
        <ele>373.25</ele>
        <time>2025-10-27T03:41:28.000Z</time>
      </trkpt>
      <trkpt lat="45.76685" lon="3.49003">
        <ele>371.75</ele>
        <time>2025-10-27T03:41:29.000Z</time>
      </trkpt>
      <trkpt lat="45.76687" lon="3.49014">
        <ele>371</ele>
        <time>2025-10-27T03:41:30.000Z</time>
      </trkpt>
      <trkpt lat="45.76688" lon="3.49019">
        <ele>370.75</ele>
        <time>2025-10-27T03:41:31.000Z</time>
      </trkpt>
      <trkpt lat="45.76665" lon="3.49088">
        <ele>367.5</ele>
        <time>2025-10-27T03:41:32.000Z</time>
      </trkpt>
      <trkpt lat="45.76679" lon="3.49112">
        <ele>369.25</ele>
        <time>2025-10-27T03:41:33.000Z</time>
      </trkpt>
      <trkpt lat="45.76689" lon="3.49135">
        <ele>371</ele>
        <time>2025-10-27T03:41:34.000Z</time>
      </trkpt>
      <trkpt lat="45.76723" lon="3.49165">
        <ele>373</ele>
        <time>2025-10-27T03:41:35.000Z</time>
      </trkpt>
      <trkpt lat="45.76736" lon="3.4916">
        <ele>372.5</ele>
        <time>2025-10-27T03:41:36.000Z</time>
      </trkpt>
      <trkpt lat="45.76748" lon="3.4917">
        <ele>373.25</ele>
        <time>2025-10-27T03:41:37.000Z</time>
      </trkpt>
      <trkpt lat="45.76773" lon="3.49237">
        <ele>380.75</ele>
        <time>2025-10-27T03:41:38.000Z</time>
      </trkpt>
      <trkpt lat="45.76774" lon="3.49249">
        <ele>382</ele>
        <time>2025-10-27T03:41:39.000Z</time>
      </trkpt>
      <trkpt lat="45.76772" lon="3.49257">
        <ele>382.5</ele>
        <time>2025-10-27T03:41:40.000Z</time>
      </trkpt>
      <trkpt lat="45.76771" lon="3.49275">
        <ele>384</ele>
        <time>2025-10-27T03:41:41.000Z</time>
      </trkpt>
      <trkpt lat="45.7677" lon="3.49283">
        <ele>384.75</ele>
        <time>2025-10-27T03:41:42.000Z</time>
      </trkpt>
      <trkpt lat="45.76756" lon="3.49315">
        <ele>387.25</ele>
        <time>2025-10-27T03:41:43.000Z</time>
      </trkpt>
      <trkpt lat="45.76737" lon="3.49352">
        <ele>390.25</ele>
        <time>2025-10-27T03:41:44.000Z</time>
      </trkpt>
      <trkpt lat="45.76708" lon="3.49384">
        <ele>392.5</ele>
        <time>2025-10-27T03:41:45.000Z</time>
      </trkpt>
      <trkpt lat="45.76696" lon="3.494">
        <ele>393.75</ele>
        <time>2025-10-27T03:41:46.000Z</time>
      </trkpt>
      <trkpt lat="45.76683" lon="3.49429">
        <ele>395.75</ele>
        <time>2025-10-27T03:41:47.000Z</time>
      </trkpt>
      <trkpt lat="45.76679" lon="3.49445">
        <ele>396.75</ele>
        <time>2025-10-27T03:41:48.000Z</time>
      </trkpt>
      <trkpt lat="45.76738" lon="3.49516">
        <ele>401.25</ele>
        <time>2025-10-27T03:41:49.000Z</time>
      </trkpt>
      <trkpt lat="45.76696" lon="3.49603">
        <ele>405.5</ele>
        <time>2025-10-27T03:41:50.000Z</time>
      </trkpt>
      <trkpt lat="45.76575" lon="3.49868">
        <ele>427.25</ele>
        <time>2025-10-27T03:41:51.000Z</time>
      </trkpt>
      <trkpt lat="45.76504" lon="3.49995">
        <ele>436.5</ele>
        <time>2025-10-27T03:41:52.000Z</time>
      </trkpt>
      <trkpt lat="45.76417" lon="3.50133">
        <ele>448</ele>
        <time>2025-10-27T03:41:53.000Z</time>
      </trkpt>
      <trkpt lat="45.76403" lon="3.5015">
        <ele>448.25</ele>
        <time>2025-10-27T03:41:54.000Z</time>
      </trkpt>
      <trkpt lat="45.7638" lon="3.50185">
        <ele>448.25</ele>
        <time>2025-10-27T03:41:55.000Z</time>
      </trkpt>
      <trkpt lat="45.76397" lon="3.50203">
        <ele>447.75</ele>
        <time>2025-10-27T03:41:56.000Z</time>
      </trkpt>
      <trkpt lat="45.76404" lon="3.50213">
        <ele>447.75</ele>
        <time>2025-10-27T03:41:57.000Z</time>
      </trkpt>
      <trkpt lat="45.7629" lon="3.50434">
        <ele>439</ele>
        <time>2025-10-27T03:41:58.000Z</time>
      </trkpt>
      <trkpt lat="45.76282" lon="3.5045">
        <ele>437.75</ele>
        <time>2025-10-27T03:41:59.000Z</time>
      </trkpt>
      <trkpt lat="45.76281" lon="3.50453">
        <ele>437</ele>
        <time>2025-10-27T03:41:59.069Z</time>
      </trkpt>
      <trkpt lat="45.76281" lon="3.50453">
        <ele>437.5</ele>
        <time>2025-10-27T03:41:59.069Z</time>
      </trkpt>
      <trkpt lat="45.76278" lon="3.50462">
        <ele>437</ele>
        <time>2025-10-27T03:41:59.308Z</time>
      </trkpt>
      <trkpt lat="45.76275" lon="3.50475">
        <ele>436.5</ele>
        <time>2025-10-27T03:41:59.622Z</time>
      </trkpt>
      <trkpt lat="45.76273" lon="3.5049">
        <ele>435.75</ele>
        <time>2025-10-27T03:41:59.978Z</time>
      </trkpt>
      <trkpt lat="45.76266" lon="3.50494">
        <ele>435</ele>
        <time>2025-10-27T03:42:00.233Z</time>
      </trkpt>
      <trkpt lat="45.76176" lon="3.50502">
        <ele>430.25</ele>
        <time>2025-10-27T03:42:03.300Z</time>
      </trkpt>
      <trkpt lat="45.76159" lon="3.505">
        <ele>429.75</ele>
        <time>2025-10-27T03:42:03.848Z</time>
      </trkpt>
      <trkpt lat="45.76152" lon="3.50498">
        <ele>429.5</ele>
        <time>2025-10-27T03:42:04.104Z</time>
      </trkpt>
      <trkpt lat="45.76145" lon="3.50492">
        <ele>429.75</ele>
        <time>2025-10-27T03:42:04.379Z</time>
      </trkpt>
      <trkpt lat="45.76127" lon="3.50442">
        <ele>431</ele>
        <time>2025-10-27T03:42:05.690Z</time>
      </trkpt>
      <trkpt lat="45.76103" lon="3.50448">
        <ele>430.25</ele>
        <time>2025-10-27T03:42:06.515Z</time>
      </trkpt>
      <trkpt lat="45.75988" lon="3.50486">
        <ele>426</ele>
        <time>2025-10-27T03:42:10.501Z</time>
      </trkpt>
      <trkpt lat="45.75977" lon="3.50489">
        <ele>426</ele>
        <time>2025-10-27T03:42:10.854Z</time>
      </trkpt>
      <trkpt lat="45.7584" lon="3.50556">
        <ele>424.75</ele>
        <time>2025-10-27T03:42:15.750Z</time>
      </trkpt>
      <trkpt lat="45.7589" lon="3.50458">
        <ele>427</ele>
        <time>2025-10-27T03:42:18.593Z</time>
      </trkpt>
      <trkpt lat="45.76026" lon="3.50284">
        <ele>434</ele>
        <time>2025-10-27T03:42:24.756Z</time>
      </trkpt>
      <trkpt lat="45.76026" lon="3.50284">
        <ele>434</ele>
        <time>2025-10-27T03:42:24.756Z</time>
      </trkpt>
      <trkpt lat="45.76026" lon="3.50284">
        <ele>434</ele>
        <time>2025-10-27T03:42:24.756Z</time>
      </trkpt>
      <trkpt lat="45.76077" lon="3.50198">
        <ele>441.25</ele>
        <time>2025-10-27T03:42:27.487Z</time>
      </trkpt>
      <trkpt lat="45.76119" lon="3.50151">
        <ele>447.5</ele>
        <time>2025-10-27T03:42:29.343Z</time>
      </trkpt>
      <trkpt lat="45.7613" lon="3.50128">
        <ele>449.75</ele>
        <time>2025-10-27T03:42:30.028Z</time>
      </trkpt>
      <trkpt lat="45.76128" lon="3.50128">
        <ele>449.5</ele>
        <time>2025-10-27T03:42:30.129Z</time>
      </trkpt>
      <trkpt lat="45.76117" lon="3.50118">
        <ele>449.5</ele>
        <time>2025-10-27T03:42:30.560Z</time>
      </trkpt>
      <trkpt lat="45.76099" lon="3.50097">
        <ele>449.75</ele>
        <time>2025-10-27T03:42:31.392Z</time>
      </trkpt>
      <trkpt lat="45.76095" lon="3.50089">
        <ele>450.25</ele>
        <time>2025-10-27T03:42:31.613Z</time>
      </trkpt>
      <trkpt lat="45.76115" lon="3.50059">
        <ele>452</ele>
        <time>2025-10-27T03:42:32.624Z</time>
      </trkpt>
      <trkpt lat="45.76131" lon="3.50041">
        <ele>453.25</ele>
        <time>2025-10-27T03:42:33.332Z</time>
      </trkpt>
      <trkpt lat="45.76174" lon="3.50005">
        <ele>455.75</ele>
        <time>2025-10-27T03:42:35.070Z</time>
      </trkpt>
      <trkpt lat="45.76115" lon="3.49957">
        <ele>452.75</ele>
        <time>2025-10-27T03:42:37.433Z</time>
      </trkpt>
      <trkpt lat="45.76088" lon="3.49934">
        <ele>451.25</ele>
        <time>2025-10-27T03:42:38.520Z</time>
      </trkpt>
      <trkpt lat="45.76062" lon="3.4991">
        <ele>450.25</ele>
        <time>2025-10-27T03:42:39.604Z</time>
      </trkpt>
      <trkpt lat="45.7605" lon="3.49895">
        <ele>450</ele>
        <time>2025-10-27T03:42:40.156Z</time>
      </trkpt>
      <trkpt lat="45.7604" lon="3.49881">
        <ele>449.75</ele>
        <time>2025-10-27T03:42:40.643Z</time>
      </trkpt>
      <trkpt lat="45.7604" lon="3.49881">
        <ele>451.6</ele>
        <time>2025-10-27T03:42:40.647Z</time>
      </trkpt>
      <trkpt lat="45.7603" lon="3.49841">
        <ele>451.2</ele>
        <time>2025-10-27T03:42:41.678Z</time>
      </trkpt>
      <trkpt lat="45.76076" lon="3.49795">
        <ele>447.1</ele>
        <time>2025-10-27T03:40:46.678Z</time>
      </trkpt>
      <trkpt lat="45.76077" lon="3.49778">
        <ele>445.5</ele>
        <time>2025-10-27T03:40:11.678Z</time>
      </trkpt>
      <trkpt lat="45.76088" lon="3.49731">
        <ele>442.4</ele>
        <time>2025-10-27T03:39:01.678Z</time>
      </trkpt>
      <trkpt lat="45.7612" lon="3.4968">
        <ele>437.6</ele>
        <time>2025-10-27T03:37:14.678Z</time>
      </trkpt>
      <trkpt lat="45.7613" lon="3.49642">
        <ele>437.5</ele>
        <time>2025-10-27T03:36:42.678Z</time>
      </trkpt>
      <trkpt lat="45.76146" lon="3.49585">
        <ele>438.4</ele>
        <time>2025-10-27T03:35:53.678Z</time>
      </trkpt>
      <trkpt lat="45.76163" lon="3.49523">
        <ele>439.7</ele>
        <time>2025-10-27T03:35:00.678Z</time>
      </trkpt>
      <trkpt lat="45.76163" lon="3.49523">
        <ele>439.7</ele>
        <time>2025-10-27T03:35:00.678Z</time>
      </trkpt>
      <trkpt lat="45.76167" lon="3.49508">
        <ele>439.6</ele>
        <time>2025-10-27T03:34:47.678Z</time>
      </trkpt>
      <trkpt lat="45.76168" lon="3.49452">
        <ele>439.1</ele>
        <time>2025-10-27T03:33:52.678Z</time>
      </trkpt>
      <trkpt lat="45.76164" lon="3.49415">
        <ele>438.2</ele>
        <time>2025-10-27T03:33:11.678Z</time>
      </trkpt>
      <trkpt lat="45.76164" lon="3.49415">
        <ele>438.2</ele>
        <time>2025-10-27T03:33:11.678Z</time>
      </trkpt>
      <trkpt lat="45.76152" lon="3.49307">
        <ele>430.2</ele>
        <time>2025-10-27T03:30:22.678Z</time>
      </trkpt>
      <trkpt lat="45.76152" lon="3.49307">
        <ele>430.2</ele>
        <time>2025-10-27T03:30:22.678Z</time>
      </trkpt>
      <trkpt lat="45.76151" lon="3.49305">
        <ele>430.1</ele>
        <time>2025-10-27T03:30:20.678Z</time>
      </trkpt>
      <trkpt lat="45.76131" lon="3.4918">
        <ele>418.9</ele>
        <time>2025-10-27T03:26:44.678Z</time>
      </trkpt>
      <trkpt lat="45.76131" lon="3.4918">
        <ele>418.9</ele>
        <time>2025-10-27T03:26:44.678Z</time>
      </trkpt>
      <trkpt lat="45.76116" lon="3.49156">
        <ele>415.7</ele>
        <time>2025-10-27T03:25:47.678Z</time>
      </trkpt>
      <trkpt lat="45.76058" lon="3.49148">
        <ele>415.8</ele>
        <time>2025-10-27T03:24:40.678Z</time>
      </trkpt>
      <trkpt lat="45.76056" lon="3.49135">
        <ele>414.7</ele>
        <time>2025-10-27T03:24:19.678Z</time>
      </trkpt>
      <trkpt lat="45.7609" lon="3.49083">
        <ele>407</ele>
        <time>2025-10-27T03:22:01.678Z</time>
      </trkpt>
      <trkpt lat="45.76114" lon="3.49021">
        <ele>399</ele>
        <time>2025-10-27T03:19:42.678Z</time>
      </trkpt>
      <trkpt lat="45.7611" lon="3.48987">
        <ele>395.3</ele>
        <time>2025-10-27T03:18:34.678Z</time>
      </trkpt>
      <trkpt lat="45.76072" lon="3.48945">
        <ele>394.1</ele>
        <time>2025-10-27T03:17:39.678Z</time>
      </trkpt>
      <trkpt lat="45.7607" lon="3.4894">
        <ele>393.7</ele>
        <time>2025-10-27T03:17:24.678Z</time>
      </trkpt>
      <trkpt lat="45.7607" lon="3.4894">
        <ele>393.7</ele>
        <time>2025-10-27T03:17:24.678Z</time>
      </trkpt>
      <trkpt lat="45.76046" lon="3.48888">
        <ele>388.2</ele>
        <time>2025-10-27T03:15:32.678Z</time>
      </trkpt>
      <trkpt lat="45.76036" lon="3.48856">
        <ele>384.6</ele>
        <time>2025-10-27T03:14:23.678Z</time>
      </trkpt>
      <trkpt lat="45.76068" lon="3.48789">
        <ele>384.2</ele>
        <time>2025-10-27T03:13:08.678Z</time>
      </trkpt>
      <trkpt lat="45.76052" lon="3.48754">
        <ele>386.2</ele>
        <time>2025-10-27T03:12:35.678Z</time>
      </trkpt>
      <trkpt lat="45.76018" lon="3.4872">
        <ele>388.3</ele>
        <time>2025-10-27T03:11:48.678Z</time>
      </trkpt>
      <trkpt lat="45.7598" lon="3.48702">
        <ele>387</ele>
        <time>2025-10-27T03:10:41.678Z</time>
      </trkpt>
      <trkpt lat="45.75926" lon="3.48597">
        <ele>391.1</ele>
        <time>2025-10-27T03:08:56.678Z</time>
      </trkpt>
      <trkpt lat="45.75924" lon="3.48562">
        <ele>395.4</ele>
        <time>2025-10-27T03:08:28.678Z</time>
      </trkpt>
      <trkpt lat="45.75843" lon="3.48473">
        <ele>394.3</ele>
        <time>2025-10-27T03:06:20.678Z</time>
      </trkpt>
      <trkpt lat="45.75834" lon="3.48434">
        <ele>396.5</ele>
        <time>2025-10-27T03:05:47.678Z</time>
      </trkpt>
      <trkpt lat="45.75834" lon="3.48434">
        <ele>396.5</ele>
        <time>2025-10-27T03:05:47.678Z</time>
      </trkpt>
      <trkpt lat="45.75818" lon="3.48361">
        <ele>397.5</ele>
        <time>2025-10-27T03:04:26.678Z</time>
      </trkpt>
      <trkpt lat="45.75794" lon="3.48331">
        <ele>394.8</ele>
        <time>2025-10-27T03:03:29.678Z</time>
      </trkpt>
      <trkpt lat="45.75761" lon="3.48174">
        <ele>398.8</ele>
        <time>2025-10-27T03:01:18.678Z</time>
      </trkpt>
      <trkpt lat="45.75732" lon="3.48153">
        <ele>403.2</ele>
        <time>2025-10-27T03:00:41.678Z</time>
      </trkpt>
      <trkpt lat="45.75661" lon="3.47948">
        <ele>402.5</ele>
        <time>2025-10-27T02:57:29.678Z</time>
      </trkpt>
      <trkpt lat="45.75668" lon="3.47825">
        <ele>404.9</ele>
        <time>2025-10-27T02:55:51.678Z</time>
      </trkpt>
      <trkpt lat="45.75649" lon="3.47801">
        <ele>403.5</ele>
        <time>2025-10-27T02:54:41.678Z</time>
      </trkpt>
      <trkpt lat="45.75537" lon="3.47655">
        <ele>409.2</ele>
        <time>2025-10-27T02:51:47.678Z</time>
      </trkpt>
      <trkpt lat="45.75537" lon="3.47655">
        <ele>409.2</ele>
        <time>2025-10-27T02:51:47.678Z</time>
      </trkpt>
      <trkpt lat="45.75503" lon="3.47611">
        <ele>408.3</ele>
        <time>2025-10-27T02:50:54.678Z</time>
      </trkpt>
      <trkpt lat="45.75476" lon="3.47596">
        <ele>409.5</ele>
        <time>2025-10-27T02:50:21.678Z</time>
      </trkpt>
      <trkpt lat="45.75459" lon="3.4758">
        <ele>409.5</ele>
        <time>2025-10-27T02:49:57.678Z</time>
      </trkpt>
      <trkpt lat="45.75434" lon="3.47557">
        <ele>409.1</ele>
        <time>2025-10-27T02:49:22.678Z</time>
      </trkpt>
      <trkpt lat="45.7539" lon="3.47515">
        <ele>411.4</ele>
        <time>2025-10-27T02:48:22.678Z</time>
      </trkpt>
      <trkpt lat="45.75365" lon="3.47512">
        <ele>411.3</ele>
        <time>2025-10-27T02:47:53.678Z</time>
      </trkpt>
      <trkpt lat="45.75351" lon="3.47526">
        <ele>409.2</ele>
        <time>2025-10-27T02:47:13.678Z</time>
      </trkpt>
      <trkpt lat="45.75314" lon="3.47462">
        <ele>414.1</ele>
        <time>2025-10-27T02:46:07.678Z</time>
      </trkpt>
      <trkpt lat="45.75313" lon="3.47459">
        <ele>414.4</ele>
        <time>2025-10-27T02:46:04.678Z</time>
      </trkpt>
      <trkpt lat="45.75306" lon="3.47421">
        <ele>417.6</ele>
        <time>2025-10-27T02:45:33.678Z</time>
      </trkpt>
      <trkpt lat="45.7531" lon="3.47396">
        <ele>420.4</ele>
        <time>2025-10-27T02:45:12.678Z</time>
      </trkpt>
      <trkpt lat="45.75342" lon="3.47326">
        <ele>433.6</ele>
        <time>2025-10-27T02:44:06.678Z</time>
      </trkpt>
      <trkpt lat="45.7534" lon="3.47299">
        <ele>437.4</ele>
        <time>2025-10-27T02:43:44.678Z</time>
      </trkpt>
      <trkpt lat="45.75334" lon="3.47278">
        <ele>440.1</ele>
        <time>2025-10-27T02:43:27.678Z</time>
      </trkpt>
      <trkpt lat="45.75297" lon="3.47188">
        <ele>450.1</ele>
        <time>2025-10-27T02:42:04.678Z</time>
      </trkpt>
      <trkpt lat="45.75305" lon="3.47151">
        <ele>456.9</ele>
        <time>2025-10-27T02:41:33.678Z</time>
      </trkpt>
      <trkpt lat="45.7531" lon="3.47098">
        <ele>461.1</ele>
        <time>2025-10-27T02:40:51.678Z</time>
      </trkpt>
      <trkpt lat="45.75324" lon="3.47054">
        <ele>464.5</ele>
        <time>2025-10-27T02:40:13.678Z</time>
      </trkpt>
      <trkpt lat="45.75366" lon="3.46974">
        <ele>468.4</ele>
        <time>2025-10-27T02:38:53.678Z</time>
      </trkpt>
      <trkpt lat="45.75409" lon="3.46944">
        <ele>474.9</ele>
        <time>2025-10-27T02:37:58.678Z</time>
      </trkpt>
      <trkpt lat="45.75504" lon="3.46939">
        <ele>487.3</ele>
        <time>2025-10-27T02:36:09.678Z</time>
      </trkpt>
      <trkpt lat="45.7553" lon="3.46909">
        <ele>489.3</ele>
        <time>2025-10-27T02:35:31.678Z</time>
      </trkpt>
      <trkpt lat="45.75554" lon="3.4685">
        <ele>489.6</ele>
        <time>2025-10-27T02:34:37.678Z</time>
      </trkpt>
      <trkpt lat="45.75587" lon="3.46794">
        <ele>488.5</ele>
        <time>2025-10-27T02:33:28.678Z</time>
      </trkpt>
      <trkpt lat="45.75627" lon="3.46745">
        <ele>486.4</ele>
        <time>2025-10-27T02:32:07.678Z</time>
      </trkpt>
      <trkpt lat="45.75662" lon="3.4667">
        <ele>484.2</ele>
        <time>2025-10-27T02:30:24.678Z</time>
      </trkpt>
      <trkpt lat="45.75656" lon="3.46638">
        <ele>484.4</ele>
        <time>2025-10-27T02:29:58.678Z</time>
      </trkpt>
      <trkpt lat="45.75617" lon="3.466">
        <ele>485.8</ele>
        <time>2025-10-27T02:29:03.678Z</time>
      </trkpt>
      <trkpt lat="45.75606" lon="3.46585">
        <ele>486.2</ele>
        <time>2025-10-27T02:28:46.678Z</time>
      </trkpt>
      <trkpt lat="45.75605" lon="3.46576">
        <ele>486.2</ele>
        <time>2025-10-27T02:28:39.678Z</time>
      </trkpt>
      <trkpt lat="45.75605" lon="3.46576">
        <ele>486.2</ele>
        <time>2025-10-27T02:28:39.678Z</time>
      </trkpt>
      <trkpt lat="45.75604" lon="3.46567">
        <ele>486.1</ele>
        <time>2025-10-27T02:28:32.678Z</time>
      </trkpt>
      <trkpt lat="45.75665" lon="3.46526">
        <ele>485.1</ele>
        <time>2025-10-27T02:27:04.678Z</time>
      </trkpt>
      <trkpt lat="45.75673" lon="3.46545">
        <ele>482.6</ele>
        <time>2025-10-27T02:26:26.678Z</time>
      </trkpt>
      <trkpt lat="45.75687" lon="3.46519">
        <ele>482.2</ele>
        <time>2025-10-27T02:25:59.678Z</time>
      </trkpt>
      <trkpt lat="45.75708" lon="3.4649">
        <ele>479.9</ele>
        <time>2025-10-27T02:24:56.678Z</time>
      </trkpt>
      <trkpt lat="45.75702" lon="3.46489">
        <ele>480.6</ele>
        <time>2025-10-27T02:24:49.678Z</time>
      </trkpt>
      <trkpt lat="45.75708" lon="3.4649">
        <ele>479.9</ele>
        <time>2025-10-27T02:24:42.678Z</time>
      </trkpt>
      <trkpt lat="45.75793" lon="3.46406">
        <ele>466.3</ele>
        <time>2025-10-27T02:20:30.678Z</time>
      </trkpt>
      <trkpt lat="45.75824" lon="3.46364">
        <ele>460.7</ele>
        <time>2025-10-27T02:18:40.678Z</time>
      </trkpt>
      <trkpt lat="45.75824" lon="3.46364">
        <ele>460.7</ele>
        <time>2025-10-27T02:18:40.678Z</time>
      </trkpt>
      <trkpt lat="45.75835" lon="3.46348">
        <ele>458.2</ele>
        <time>2025-10-27T02:18:01.678Z</time>
      </trkpt>
      <trkpt lat="45.75877" lon="3.4631">
        <ele>450.6</ele>
        <time>2025-10-27T02:15:41.678Z</time>
      </trkpt>
      <trkpt lat="45.75979" lon="3.46258">
        <ele>432.7</ele>
        <time>2025-10-27T02:10:22.678Z</time>
      </trkpt>
      <trkpt lat="45.76008" lon="3.46237">
        <ele>427.5</ele>
        <time>2025-10-27T02:08:54.678Z</time>
      </trkpt>
      <trkpt lat="45.76058" lon="3.46178">
        <ele>415.6</ele>
        <time>2025-10-27T02:05:47.678Z</time>
      </trkpt>
      <trkpt lat="45.76079" lon="3.46168">
        <ele>413.4</ele>
        <time>2025-10-27T02:05:01.678Z</time>
      </trkpt>
      <trkpt lat="45.76127" lon="3.46172">
        <ele>413.8</ele>
        <time>2025-10-27T02:04:06.678Z</time>
      </trkpt>
      <trkpt lat="45.76186" lon="3.46129">
        <ele>409.7</ele>
        <time>2025-10-27T02:02:09.678Z</time>
      </trkpt>
      <trkpt lat="45.76258" lon="3.4605">
        <ele>415</ele>
        <time>2025-10-27T02:00:25.678Z</time>
      </trkpt>
      <trkpt lat="45.76202" lon="3.45926">
        <ele>422.6</ele>
        <time>2025-10-27T01:58:27.678Z</time>
      </trkpt>
      <trkpt lat="45.76147" lon="3.4585">
        <ele>423.9</ele>
        <time>2025-10-27T01:57:00.678Z</time>
      </trkpt>
      <trkpt lat="45.76123" lon="3.45845">
        <ele>424.5</ele>
        <time>2025-10-27T01:56:32.678Z</time>
      </trkpt>
      <trkpt lat="45.76116" lon="3.45838">
        <ele>425.3</ele>
        <time>2025-10-27T01:56:22.678Z</time>
      </trkpt>
      <trkpt lat="45.76101" lon="3.4568">
        <ele>433.6</ele>
        <time>2025-10-27T01:54:15.678Z</time>
      </trkpt>
      <trkpt lat="45.76068" lon="3.45562">
        <ele>438</ele>
        <time>2025-10-27T01:52:33.678Z</time>
      </trkpt>
      <trkpt lat="45.76047" lon="3.45468">
        <ele>440.3</ele>
        <time>2025-10-27T01:51:14.678Z</time>
      </trkpt>
      <trkpt lat="45.76043" lon="3.45398">
        <ele>438.3</ele>
        <time>2025-10-27T01:49:57.678Z</time>
      </trkpt>
      <trkpt lat="45.76032" lon="3.45327">
        <ele>434.7</ele>
        <time>2025-10-27T01:48:18.678Z</time>
      </trkpt>
      <trkpt lat="45.76028" lon="3.45249">
        <ele>427.9</ele>
        <time>2025-10-27T01:46:03.678Z</time>
      </trkpt>
      <trkpt lat="45.7599" lon="3.45063">
        <ele>411.2</ele>
        <time>2025-10-27T01:40:44.678Z</time>
      </trkpt>
      <trkpt lat="45.75977" lon="3.44905">
        <ele>401</ele>
        <time>2025-10-27T01:36:44.678Z</time>
      </trkpt>
      <trkpt lat="45.75986" lon="3.44847">
        <ele>397.2</ele>
        <time>2025-10-27T01:35:26.678Z</time>
      </trkpt>
      <trkpt lat="45.76058" lon="3.44754">
        <ele>392.1</ele>
        <time>2025-10-27T01:32:43.678Z</time>
      </trkpt>
      <trkpt lat="45.76075" lon="3.44699">
        <ele>389.5</ele>
        <time>2025-10-27T01:31:34.678Z</time>
      </trkpt>
      <trkpt lat="45.76111" lon="3.44537">
        <ele>384.3</ele>
        <time>2025-10-27T01:28:27.678Z</time>
      </trkpt>
      <trkpt lat="45.76144" lon="3.44456">
        <ele>381.9</ele>
        <time>2025-10-27T01:26:41.678Z</time>
      </trkpt>
      <trkpt lat="45.76176" lon="3.44353">
        <ele>379.5</ele>
        <time>2025-10-27T01:24:51.678Z</time>
      </trkpt>
      <trkpt lat="45.76224" lon="3.44167">
        <ele>376</ele>
        <time>2025-10-27T01:21:32.678Z</time>
      </trkpt>
      <trkpt lat="45.76042" lon="3.44151">
        <ele>372.5</ele>
        <time>2025-10-27T01:17:44.678Z</time>
      </trkpt>
      <trkpt lat="45.7594" lon="3.44278">
        <ele>373.4</ele>
        <time>2025-10-27T01:15:09.678Z</time>
      </trkpt>
      <trkpt lat="45.75889" lon="3.44283">
        <ele>370</ele>
        <time>2025-10-27T01:13:29.678Z</time>
      </trkpt>
      <trkpt lat="45.75872" lon="3.44277">
        <ele>371.9</ele>
        <time>2025-10-27T01:13:08.678Z</time>
      </trkpt>
      <trkpt lat="45.75837" lon="3.44275">
        <ele>375.7</ele>
        <time>2025-10-27T01:12:28.678Z</time>
      </trkpt>
      <trkpt lat="45.75755" lon="3.44294">
        <ele>380.4</ele>
        <time>2025-10-27T01:10:53.678Z</time>
      </trkpt>
      <trkpt lat="45.75512" lon="3.44307">
        <ele>393.7</ele>
        <time>2025-10-27T01:06:14.678Z</time>
      </trkpt>
      <trkpt lat="45.7543" lon="3.44266">
        <ele>399.9</ele>
        <time>2025-10-27T01:04:35.678Z</time>
      </trkpt>
      <trkpt lat="45.75366" lon="3.44109">
        <ele>409</ele>
        <time>2025-10-27T01:02:10.678Z</time>
      </trkpt>
      <trkpt lat="45.75322" lon="3.44071">
        <ele>414.3</ele>
        <time>2025-10-27T01:01:11.678Z</time>
      </trkpt>
      <trkpt lat="45.75294" lon="3.44052">
        <ele>416.7</ele>
        <time>2025-10-27T01:00:36.678Z</time>
      </trkpt>
      <trkpt lat="45.75279" lon="3.4403">
        <ele>417</ele>
        <time>2025-10-27T01:00:11.678Z</time>
      </trkpt>
      <trkpt lat="45.75268" lon="3.43997">
        <ele>417.2</ele>
        <time>2025-10-27T00:59:42.678Z</time>
      </trkpt>
      <trkpt lat="45.7529" lon="3.43981">
        <ele>415.7</ele>
        <time>2025-10-27T00:58:53.678Z</time>
      </trkpt>
      <trkpt lat="45.75269" lon="3.43927">
        <ele>412.9</ele>
        <time>2025-10-27T00:57:33.678Z</time>
      </trkpt>
      <trkpt lat="45.75279" lon="3.43911">
        <ele>411.4</ele>
        <time>2025-10-27T00:57:05.678Z</time>
      </trkpt>
      <trkpt lat="45.7529" lon="3.43898">
        <ele>409.8</ele>
        <time>2025-10-27T00:56:39.678Z</time>
      </trkpt>
      <trkpt lat="45.7529" lon="3.43898">
        <ele>409.8</ele>
        <time>2025-10-27T00:56:39.678Z</time>
      </trkpt>
      <trkpt lat="45.75279" lon="3.43911">
        <ele>411.4</ele>
        <time>2025-10-27T00:56:23.678Z</time>
      </trkpt>
      <trkpt lat="45.75305" lon="3.43893">
        <ele>409.3</ele>
        <time>2025-10-27T00:55:30.678Z</time>
      </trkpt>
      <trkpt lat="45.75391" lon="3.43865">
        <ele>405.1</ele>
        <time>2025-10-27T00:53:08.678Z</time>
      </trkpt>
      <trkpt lat="45.75466" lon="3.43855">
        <ele>399.2</ele>
        <time>2025-10-27T00:50:40.678Z</time>
      </trkpt>
      <trkpt lat="45.75696" lon="3.43804">
        <ele>382</ele>
        <time>2025-10-27T00:43:19.678Z</time>
      </trkpt>
      <trkpt lat="45.75711" lon="3.43793">
        <ele>381.7</ele>
        <time>2025-10-27T00:43:00.678Z</time>
      </trkpt>
      <trkpt lat="45.75828" lon="3.43627">
        <ele>371.8</ele>
        <time>2025-10-27T00:38:09.678Z</time>
      </trkpt>
      <trkpt lat="45.75851" lon="3.43606">
        <ele>370.7</ele>
        <time>2025-10-27T00:37:28.678Z</time>
      </trkpt>
      <trkpt lat="45.75933" lon="3.43598">
        <ele>368.5</ele>
        <time>2025-10-27T00:35:33.678Z</time>
      </trkpt>
      <trkpt lat="45.76031" lon="3.43548">
        <ele>366.6</ele>
        <time>2025-10-27T00:33:14.678Z</time>
      </trkpt>
      <trkpt lat="45.76172" lon="3.43476">
        <ele>364.8</ele>
        <time>2025-10-27T00:30:02.678Z</time>
      </trkpt>
      <trkpt lat="45.76276" lon="3.43458">
        <ele>356</ele>
        <time>2025-10-27T00:26:30.678Z</time>
      </trkpt>
      <trkpt lat="45.76372" lon="3.43459">
        <ele>365</ele>
        <time>2025-10-27T00:24:40.678Z</time>
      </trkpt>
      <trkpt lat="45.76393" lon="3.43603">
        <ele>367.1</ele>
        <time>2025-10-27T00:22:42.678Z</time>
      </trkpt>
      <trkpt lat="45.76397" lon="3.43614">
        <ele>367.3</ele>
        <time>2025-10-27T00:22:32.678Z</time>
      </trkpt>
      <trkpt lat="45.76417" lon="3.43642">
        <ele>368</ele>
        <time>2025-10-27T00:22:00.678Z</time>
      </trkpt>
      <trkpt lat="45.76467" lon="3.43545">
        <ele>365.2</ele>
        <time>2025-10-27T00:19:53.678Z</time>
      </trkpt>
      <trkpt lat="45.7649" lon="3.43395">
        <ele>363</ele>
        <time>2025-10-27T00:17:29.678Z</time>
      </trkpt>
      <trkpt lat="45.76511" lon="3.43326">
        <ele>360.8</ele>
        <time>2025-10-27T00:15:58.678Z</time>
      </trkpt>
      <trkpt lat="45.76533" lon="3.43356">
        <ele>361.2</ele>
        <time>2025-10-27T00:15:23.678Z</time>
      </trkpt>
      <trkpt lat="45.76603" lon="3.43278">
        <ele>360.3</ele>
        <time>2025-10-27T00:13:31.678Z</time>
      </trkpt>
      <trkpt lat="45.76658" lon="3.43171">
        <ele>358.2</ele>
        <time>2025-10-27T00:11:35.678Z</time>
      </trkpt>
      <trkpt lat="45.76679" lon="3.43102">
        <ele>356.7</ele>
        <time>2025-10-27T00:10:04.678Z</time>
      </trkpt>
      <trkpt lat="45.76754" lon="3.42959">
        <ele>351.5</ele>
        <time>2025-10-27T00:06:49.678Z</time>
      </trkpt>
      <trkpt lat="45.76788" lon="3.42853">
        <ele>350</ele>
        <time>2025-10-27T00:05:05.678Z</time>
      </trkpt>
      <trkpt lat="45.76826" lon="3.42876">
        <ele>350.1</ele>
        <time>2025-10-27T00:04:18.678Z</time>
      </trkpt>
      <trkpt lat="45.76958" lon="3.42854">
        <ele>348.5</ele>
        <time>2025-10-27T00:01:35.678Z</time>
      </trkpt>
      <trkpt lat="45.76948" lon="3.42729">
        <ele>347.2</ele>
        <time>2025-10-26T23:59:34.678Z</time>
      </trkpt>
      <trkpt lat="45.76932" lon="3.42641">
        <ele>347.4</ele>
        <time>2025-10-26T23:58:21.678Z</time>
      </trkpt>
      <trkpt lat="45.76924" lon="3.42537">
        <ele>345.7</ele>
        <time>2025-10-26T23:56:47.678Z</time>
      </trkpt>
      <trkpt lat="45.76924" lon="3.42422">
        <ele>346</ele>
        <time>2025-10-26T23:55:15.678Z</time>
      </trkpt>
      <trkpt lat="45.76944" lon="3.42211">
        <ele>346</ele>
        <time>2025-10-26T23:52:25.678Z</time>
      </trkpt>
      <trkpt lat="45.76979" lon="3.4221">
        <ele>345.9</ele>
        <time>2025-10-26T23:51:44.678Z</time>
      </trkpt>
      <trkpt lat="45.77026" lon="3.42242">
        <ele>345.7</ele>
        <time>2025-10-26T23:50:44.678Z</time>
      </trkpt>
      <trkpt lat="45.77107" lon="3.42236">
        <ele>343.6</ele>
        <time>2025-10-26T23:48:50.678Z</time>
      </trkpt>
      <trkpt lat="45.77133" lon="3.42259">
        <ele>342.2</ele>
        <time>2025-10-26T23:47:55.678Z</time>
      </trkpt>
      <trkpt lat="45.77167" lon="3.42242">
        <ele>342</ele>
        <time>2025-10-26T23:47:14.678Z</time>
      </trkpt>
      <trkpt lat="45.77228" lon="3.42277">
        <ele>342.7</ele>
        <time>2025-10-26T23:45:59.678Z</time>
      </trkpt>
      <trkpt lat="45.7728" lon="3.42315">
        <ele>343.3</ele>
        <time>2025-10-26T23:44:52.678Z</time>
      </trkpt>
      <trkpt lat="45.77329" lon="3.42267">
        <ele>342.9</ele>
        <time>2025-10-26T23:43:44.678Z</time>
      </trkpt>
      <trkpt lat="45.7735" lon="3.42264">
        <ele>343</ele>
        <time>2025-10-26T23:43:19.678Z</time>
      </trkpt>
      <trkpt lat="45.7737" lon="3.42261">
        <ele>343</ele>
        <time>2025-10-26T23:42:46.678Z</time>
      </trkpt>
      <trkpt lat="45.77437" lon="3.4227">
        <ele>344.2</ele>
        <time>2025-10-26T23:41:29.678Z</time>
      </trkpt>
      <trkpt lat="45.77488" lon="3.42336">
        <ele>344.5</ele>
        <time>2025-10-26T23:40:11.678Z</time>
      </trkpt>
      <trkpt lat="45.7752" lon="3.42394">
        <ele>345.3</ele>
        <time>2025-10-26T23:39:12.678Z</time>
      </trkpt>
      <trkpt lat="45.7753" lon="3.42408">
        <ele>345.4</ele>
        <time>2025-10-26T23:38:57.678Z</time>
      </trkpt>
      <trkpt lat="45.77538" lon="3.4241">
        <ele>345.5</ele>
        <time>2025-10-26T23:38:47.678Z</time>
      </trkpt>
      <trkpt lat="45.7789" lon="3.42415">
        <ele>347.9</ele>
        <time>2025-10-26T23:32:05.678Z</time>
      </trkpt>
      <trkpt lat="45.77916" lon="3.42423">
        <ele>347.2</ele>
        <time>2025-10-26T23:31:34.678Z</time>
      </trkpt>
      <trkpt lat="45.7793" lon="3.42432">
        <ele>347.8</ele>
        <time>2025-10-26T23:31:17.678Z</time>
      </trkpt>
      <trkpt lat="45.77955" lon="3.42447">
        <ele>348</ele>
        <time>2025-10-26T23:30:46.678Z</time>
      </trkpt>
      <trkpt lat="45.77989" lon="3.42469">
        <ele>348</ele>
        <time>2025-10-26T23:30:04.678Z</time>
      </trkpt>
      <trkpt lat="45.7802" lon="3.42476">
        <ele>348</ele>
        <time>2025-10-26T23:29:18.678Z</time>
      </trkpt>
      <trkpt lat="45.78046" lon="3.42476">
        <ele>348</ele>
        <time>2025-10-26T23:28:48.678Z</time>
      </trkpt>
      <trkpt lat="45.78098" lon="3.42464">
        <ele>348</ele>
        <time>2025-10-26T23:27:47.678Z</time>
      </trkpt>
      <trkpt lat="45.78114" lon="3.42465">
        <ele>348</ele>
        <time>2025-10-26T23:27:28.678Z</time>
      </trkpt>
      <trkpt lat="45.78165" lon="3.4249">
        <ele>347.1</ele>
        <time>2025-10-26T23:26:16.678Z</time>
      </trkpt>
      <trkpt lat="45.78208" lon="3.42533">
        <ele>347</ele>
        <time>2025-10-26T23:25:16.678Z</time>
      </trkpt>
      <trkpt lat="45.7827" lon="3.42619">
        <ele>346.8</ele>
        <time>2025-10-26T23:23:38.678Z</time>
      </trkpt>
      <trkpt lat="45.78292" lon="3.4264">
        <ele>347.5</ele>
        <time>2025-10-26T23:23:08.678Z</time>
      </trkpt>
      <trkpt lat="45.78306" lon="3.42662">
        <ele>348</ele>
        <time>2025-10-26T23:22:44.678Z</time>
      </trkpt>
      <trkpt lat="45.78298" lon="3.42673">
        <ele>348</ele>
        <time>2025-10-26T23:22:31.678Z</time>
      </trkpt>
      <trkpt lat="45.78256" lon="3.42707">
        <ele>347.6</ele>
        <time>2025-10-26T23:21:35.678Z</time>
      </trkpt>
      <trkpt lat="45.7825" lon="3.42717">
        <ele>347.2</ele>
        <time>2025-10-26T23:21:14.678Z</time>
      </trkpt>
      <trkpt lat="45.78229" lon="3.4278">
        <ele>347.3</ele>
        <time>2025-10-26T23:20:18.678Z</time>
      </trkpt>
      <trkpt lat="45.78227" lon="3.42784">
        <ele>347.4</ele>
        <time>2025-10-26T23:20:15.678Z</time>
      </trkpt>
      <trkpt lat="45.78227" lon="3.42784">
        <ele>347.4</ele>
        <time>2025-10-26T23:20:15.678Z</time>
      </trkpt>
      <trkpt lat="45.78209" lon="3.42839">
        <ele>348.2</ele>
        <time>2025-10-26T23:19:26.678Z</time>
      </trkpt>
      <trkpt lat="45.78273" lon="3.42856">
        <ele>350</ele>
        <time>2025-10-26T23:18:11.678Z</time>
      </trkpt>
      <trkpt lat="45.78284" lon="3.42862">
        <ele>350</ele>
        <time>2025-10-26T23:17:58.678Z</time>
      </trkpt>
      <trkpt lat="45.78283" lon="3.42883">
        <ele>350</ele>
        <time>2025-10-26T23:17:41.678Z</time>
      </trkpt>
      <trkpt lat="45.78282" lon="3.42913">
        <ele>350.9</ele>
        <time>2025-10-26T23:17:17.678Z</time>
      </trkpt>
      <trkpt lat="45.78289" lon="3.4279">
        <ele>349.2</ele>
        <time>2025-10-26T23:15:18.678Z</time>
      </trkpt>
      <trkpt lat="45.78313" lon="3.42691">
        <ele>348</ele>
        <time>2025-10-26T23:13:44.678Z</time>
      </trkpt>
      <trkpt lat="45.78319" lon="3.42677">
        <ele>348</ele>
        <time>2025-10-26T23:13:31.678Z</time>
      </trkpt>
      <trkpt lat="45.78306" lon="3.42662">
        <ele>348</ele>
        <time>2025-10-26T23:13:13.678Z</time>
      </trkpt>
      <trkpt lat="45.78308" lon="3.42627">
        <ele>347.6</ele>
        <time>2025-10-26T23:12:44.678Z</time>
      </trkpt>
      <trkpt lat="45.78312" lon="3.42607">
        <ele>347</ele>
        <time>2025-10-26T23:12:17.678Z</time>
      </trkpt>
      <trkpt lat="45.78327" lon="3.42587">
        <ele>346.3</ele>
        <time>2025-10-26T23:11:54.678Z</time>
      </trkpt>
      <trkpt lat="45.78365" lon="3.42546">
        <ele>346</ele>
        <time>2025-10-26T23:10:49.678Z</time>
      </trkpt>
      <trkpt lat="45.78323" lon="3.42376">
        <ele>347</ele>
        <time>2025-10-26T23:08:25.678Z</time>
      </trkpt>
      <trkpt lat="45.78343" lon="3.42327">
        <ele>347.3</ele>
        <time>2025-10-26T23:07:40.678Z</time>
      </trkpt>
      <trkpt lat="45.78357" lon="3.42294">
        <ele>347.9</ele>
        <time>2025-10-26T23:07:10.678Z</time>
      </trkpt>
      <trkpt lat="45.78459" lon="3.42186">
        <ele>350.5</ele>
        <time>2025-10-26T23:04:44.678Z</time>
      </trkpt>
      <trkpt lat="45.78518" lon="3.42164">
        <ele>351.7</ele>
        <time>2025-10-26T23:03:35.678Z</time>
      </trkpt>
      <trkpt lat="45.78512" lon="3.42048">
        <ele>352.4</ele>
        <time>2025-10-26T23:02:02.678Z</time>
      </trkpt>
      <trkpt lat="45.7851" lon="3.42021">
        <ele>353.6</ele>
        <time>2025-10-26T23:01:40.678Z</time>
      </trkpt>
      <trkpt lat="45.78508" lon="3.41988">
        <ele>354.7</ele>
        <time>2025-10-26T23:01:14.678Z</time>
      </trkpt>
      <trkpt lat="45.78529" lon="3.41918">
        <ele>357</ele>
        <time>2025-10-26T23:00:13.678Z</time>
      </trkpt>
      <trkpt lat="45.78553" lon="3.4179">
        <ele>361.7</ele>
        <time>2025-10-26T22:58:27.678Z</time>
      </trkpt>
      <trkpt lat="45.78561" lon="3.41786">
        <ele>361.9</ele>
        <time>2025-10-26T22:58:18.678Z</time>
      </trkpt>
      <trkpt lat="45.78598" lon="3.41721">
        <ele>366.1</ele>
        <time>2025-10-26T22:57:11.678Z</time>
      </trkpt>
      <trkpt lat="45.7863" lon="3.41662">
        <ele>369.5</ele>
        <time>2025-10-26T22:56:11.678Z</time>
      </trkpt>
      <trkpt lat="45.78652" lon="3.41621">
        <ele>373.1</ele>
        <time>2025-10-26T22:55:30.678Z</time>
      </trkpt>
      <trkpt lat="45.78666" lon="3.41551">
        <ele>379.3</ele>
        <time>2025-10-26T22:54:32.678Z</time>
      </trkpt>
      <trkpt lat="45.7867" lon="3.41529">
        <ele>380.8</ele>
        <time>2025-10-26T22:54:14.678Z</time>
      </trkpt>
      <trkpt lat="45.7867" lon="3.41529">
        <ele>380.8</ele>
        <time>2025-10-26T22:54:14.678Z</time>
      </trkpt>
      <trkpt lat="45.78695" lon="3.41394">
        <ele>390.6</ele>
        <time>2025-10-26T22:52:22.678Z</time>
      </trkpt>
      <trkpt lat="45.78701" lon="3.41378">
        <ele>391.9</ele>
        <time>2025-10-26T22:52:08.678Z</time>
      </trkpt>
      <trkpt lat="45.78712" lon="3.41363">
        <ele>393.2</ele>
        <time>2025-10-26T22:51:50.678Z</time>
      </trkpt>
      <trkpt lat="45.78762" lon="3.41316">
        <ele>395.8</ele>
        <time>2025-10-26T22:50:42.678Z</time>
      </trkpt>
      <trkpt lat="45.78772" lon="3.41312">
        <ele>395.9</ele>
        <time>2025-10-26T22:50:30.678Z</time>
      </trkpt>
      <trkpt lat="45.78809" lon="3.41322">
        <ele>399.1</ele>
        <time>2025-10-26T22:49:47.678Z</time>
      </trkpt>
      <trkpt lat="45.78825" lon="3.41322">
        <ele>400.2</ele>
        <time>2025-10-26T22:49:29.678Z</time>
      </trkpt>
      <trkpt lat="45.78844" lon="3.41309">
        <ele>401.4</ele>
        <time>2025-10-26T22:49:04.678Z</time>
      </trkpt>
      <trkpt lat="45.7886" lon="3.41228">
        <ele>406.5</ele>
        <time>2025-10-26T22:47:57.678Z</time>
      </trkpt>
      <trkpt lat="45.78872" lon="3.412">
        <ele>408.6</ele>
        <time>2025-10-26T22:47:31.678Z</time>
      </trkpt>
      <trkpt lat="45.78749" lon="3.41181">
        <ele>408.9</ele>
        <time>2025-10-26T22:45:10.678Z</time>
      </trkpt>
      <trkpt lat="45.78664" lon="3.41169">
        <ele>408.8</ele>
        <time>2025-10-26T22:43:32.678Z</time>
      </trkpt>
      <trkpt lat="45.78246" lon="3.41112">
        <ele>409.9</ele>
        <time>2025-10-26T22:35:32.678Z</time>
      </trkpt>
      <trkpt lat="45.7823" lon="3.41136">
        <ele>408.2</ele>
        <time>2025-10-26T22:34:45.678Z</time>
      </trkpt>
      <trkpt lat="45.78218" lon="3.41162">
        <ele>407</ele>
        <time>2025-10-26T22:34:10.678Z</time>
      </trkpt>
      <trkpt lat="45.78208" lon="3.41203">
        <ele>405.3</ele>
        <time>2025-10-26T22:33:15.678Z</time>
      </trkpt>
      <trkpt lat="45.78216" lon="3.41262">
        <ele>403.9</ele>
        <time>2025-10-26T22:32:16.678Z</time>
      </trkpt>
      <trkpt lat="45.78217" lon="3.4134">
        <ele>403</ele>
        <time>2025-10-26T22:31:04.678Z</time>
      </trkpt>
      <trkpt lat="45.78191" lon="3.414">
        <ele>402</ele>
        <time>2025-10-26T22:29:57.678Z</time>
      </trkpt>
      <trkpt lat="45.78185" lon="3.41404">
        <ele>402</ele>
        <time>2025-10-26T22:29:50.678Z</time>
      </trkpt>
      <trkpt lat="45.78154" lon="3.41478">
        <ele>400.5</ele>
        <time>2025-10-26T22:28:31.678Z</time>
      </trkpt>
      <trkpt lat="45.78139" lon="3.41498">
        <ele>400</ele>
        <time>2025-10-26T22:27:58.678Z</time>
      </trkpt>
      <trkpt lat="45.78104" lon="3.41518">
        <ele>398.7</ele>
        <time>2025-10-26T22:27:04.678Z</time>
      </trkpt>
      <trkpt lat="45.78036" lon="3.41491">
        <ele>396.3</ele>
        <time>2025-10-26T22:25:23.678Z</time>
      </trkpt>
      <trkpt lat="45.78004" lon="3.41469">
        <ele>393.5</ele>
        <time>2025-10-26T22:24:02.678Z</time>
      </trkpt>
      <trkpt lat="45.77986" lon="3.41449">
        <ele>392.3</ele>
        <time>2025-10-26T22:23:26.678Z</time>
      </trkpt>
      <trkpt lat="45.77973" lon="3.41439">
        <ele>391.3</ele>
        <time>2025-10-26T22:22:59.678Z</time>
      </trkpt>
      <trkpt lat="45.77937" lon="3.41444">
        <ele>391</ele>
        <time>2025-10-26T22:22:18.678Z</time>
      </trkpt>
      <trkpt lat="45.77908" lon="3.4144">
        <ele>391.8</ele>
        <time>2025-10-26T22:21:44.678Z</time>
      </trkpt>
      <trkpt lat="45.77883" lon="3.41418">
        <ele>394.9</ele>
        <time>2025-10-26T22:21:10.678Z</time>
      </trkpt>
      <trkpt lat="45.77882" lon="3.41417">
        <ele>395</ele>
        <time>2025-10-26T22:21:09.678Z</time>
      </trkpt>
      <trkpt lat="45.7784" lon="3.41385">
        <ele>397</ele>
        <time>2025-10-26T22:20:15.678Z</time>
      </trkpt>
      <trkpt lat="45.77818" lon="3.414">
        <ele>395.6</ele>
        <time>2025-10-26T22:19:37.678Z</time>
      </trkpt>
      <trkpt lat="45.77807" lon="3.41397">
        <ele>395.8</ele>
        <time>2025-10-26T22:19:25.678Z</time>
      </trkpt>
      <trkpt lat="45.77766" lon="3.41357">
        <ele>397.2</ele>
        <time>2025-10-26T22:18:28.678Z</time>
      </trkpt>
      <trkpt lat="45.77736" lon="3.41323">
        <ele>396.1</ele>
        <time>2025-10-26T22:17:23.678Z</time>
      </trkpt>
      <trkpt lat="45.77711" lon="3.41335">
        <ele>395.2</ele>
        <time>2025-10-26T22:16:43.678Z</time>
      </trkpt>
      <trkpt lat="45.7768" lon="3.41336">
        <ele>395.6</ele>
        <time>2025-10-26T22:16:08.678Z</time>
      </trkpt>
      <trkpt lat="45.77626" lon="3.41314">
        <ele>397.9</ele>
        <time>2025-10-26T22:15:04.678Z</time>
      </trkpt>
      <trkpt lat="45.77578" lon="3.41319">
        <ele>397</ele>
        <time>2025-10-26T22:14:09.678Z</time>
      </trkpt>
      <trkpt lat="45.77552" lon="3.41316">
        <ele>396.7</ele>
        <time>2025-10-26T22:13:29.678Z</time>
      </trkpt>
      <trkpt lat="45.77552" lon="3.41307">
        <ele>398.3</ele>
        <time>2025-10-26T22:13:22.678Z</time>
      </trkpt>
      <trkpt lat="45.77552" lon="3.41307">
        <ele>398.3</ele>
        <time>2025-10-26T22:13:22.678Z</time>
      </trkpt>
      <trkpt lat="45.77553" lon="3.41298">
        <ele>399.3</ele>
        <time>2025-10-26T22:13:15.678Z</time>
      </trkpt>
      <trkpt lat="45.77619" lon="3.41202">
        <ele>403.7</ele>
        <time>2025-10-26T22:11:27.678Z</time>
      </trkpt>
      <trkpt lat="45.77619" lon="3.4118">
        <ele>404</ele>
        <time>2025-10-26T22:11:10.678Z</time>
      </trkpt>
      <trkpt lat="45.7761" lon="3.41163">
        <ele>404</ele>
        <time>2025-10-26T22:10:53.678Z</time>
      </trkpt>
      <trkpt lat="45.77546" lon="3.41101">
        <ele>402.7</ele>
        <time>2025-10-26T22:09:14.678Z</time>
      </trkpt>
      <trkpt lat="45.77494" lon="3.40979">
        <ele>401</ele>
        <time>2025-10-26T22:06:59.678Z</time>
      </trkpt>
      <trkpt lat="45.77459" lon="3.40904">
        <ele>397.6</ele>
        <time>2025-10-26T22:05:16.678Z</time>
      </trkpt>
      <trkpt lat="45.77432" lon="3.40876">
        <ele>395.1</ele>
        <time>2025-10-26T22:04:17.678Z</time>
      </trkpt>
      <trkpt lat="45.77475" lon="3.40877">
        <ele>398.2</ele>
        <time>2025-10-26T22:03:28.678Z</time>
      </trkpt>
      <trkpt lat="45.77501" lon="3.40868">
        <ele>399.3</ele>
        <time>2025-10-26T22:02:56.678Z</time>
      </trkpt>
      <trkpt lat="45.77545" lon="3.40868">
        <ele>401.6</ele>
        <time>2025-10-26T22:02:06.678Z</time>
      </trkpt>
      <trkpt lat="45.77561" lon="3.40845">
        <ele>402.4</ele>
        <time>2025-10-26T22:01:40.678Z</time>
      </trkpt>
      <trkpt lat="45.77641" lon="3.40895">
        <ele>406.9</ele>
        <time>2025-10-26T22:00:00.678Z</time>
      </trkpt>
      <trkpt lat="45.77683" lon="3.40896">
        <ele>409.8</ele>
        <time>2025-10-26T21:59:12.678Z</time>
      </trkpt>
      <trkpt lat="45.77728" lon="3.40904">
        <ele>412.4</ele>
        <time>2025-10-26T21:58:21.678Z</time>
      </trkpt>
      <trkpt lat="45.77793" lon="3.40939">
        <ele>414.6</ele>
        <time>2025-10-26T21:57:01.678Z</time>
      </trkpt>
      <trkpt lat="45.77813" lon="3.40955">
        <ele>414.7</ele>
        <time>2025-10-26T21:56:35.678Z</time>
      </trkpt>
      <trkpt lat="45.77835" lon="3.40962">
        <ele>415.2</ele>
        <time>2025-10-26T21:56:09.678Z</time>
      </trkpt>
      <trkpt lat="45.77863" lon="3.40961">
        <ele>417.3</ele>
        <time>2025-10-26T21:55:37.678Z</time>
      </trkpt>
      <trkpt lat="45.77947" lon="3.40975">
        <ele>417.8</ele>
        <time>2025-10-26T21:54:00.678Z</time>
      </trkpt>
      <trkpt lat="45.77975" lon="3.40968">
        <ele>419.6</ele>
        <time>2025-10-26T21:53:27.678Z</time>
      </trkpt>
      <trkpt lat="45.77975" lon="3.40968">
        <ele>419.6</ele>
        <time>2025-10-26T21:53:27.678Z</time>
      </trkpt>
      <trkpt lat="45.77995" lon="3.40961">
        <ele>421</ele>
        <time>2025-10-26T21:53:04.678Z</time>
      </trkpt>
      <trkpt lat="45.78009" lon="3.40943">
        <ele>423.2</ele>
        <time>2025-10-26T21:52:42.678Z</time>
      </trkpt>
      <trkpt lat="45.77955" lon="3.40909">
        <ele>425.2</ele>
        <time>2025-10-26T21:51:35.678Z</time>
      </trkpt>
      <trkpt lat="45.77923" lon="3.40853">
        <ele>430.6</ele>
        <time>2025-10-26T21:50:37.678Z</time>
      </trkpt>
      <trkpt lat="45.77907" lon="3.40812">
        <ele>434.6</ele>
        <time>2025-10-26T21:49:59.678Z</time>
      </trkpt>
      <trkpt lat="45.77818" lon="3.40725">
        <ele>439.5</ele>
        <time>2025-10-26T21:47:55.678Z</time>
      </trkpt>
      <trkpt lat="45.77764" lon="3.40648">
        <ele>447.4</ele>
        <time>2025-10-26T21:46:28.678Z</time>
      </trkpt>
      <trkpt lat="45.77722" lon="3.40607">
        <ele>449.5</ele>
        <time>2025-10-26T21:45:30.678Z</time>
      </trkpt>
      <trkpt lat="45.77696" lon="3.40565">
        <ele>451.2</ele>
        <time>2025-10-26T21:44:45.678Z</time>
      </trkpt>
      <trkpt lat="45.77715" lon="3.40545">
        <ele>455.7</ele>
        <time>2025-10-26T21:44:19.678Z</time>
      </trkpt>
      <trkpt lat="45.77704" lon="3.40508">
        <ele>455.8</ele>
        <time>2025-10-26T21:43:47.678Z</time>
      </trkpt>
      <trkpt lat="45.77686" lon="3.40497">
        <ele>454.2</ele>
        <time>2025-10-26T21:43:04.678Z</time>
      </trkpt>
      <trkpt lat="45.77672" lon="3.40483">
        <ele>453.2</ele>
        <time>2025-10-26T21:42:35.678Z</time>
      </trkpt>
      <trkpt lat="45.77672" lon="3.40483">
        <ele>453.2</ele>
        <time>2025-10-26T21:42:35.678Z</time>
      </trkpt>
      <trkpt lat="45.77672" lon="3.40467">
        <ele>453.5</ele>
        <time>2025-10-26T21:42:23.678Z</time>
      </trkpt>
      <trkpt lat="45.77688" lon="3.40468">
        <ele>455.2</ele>
        <time>2025-10-26T21:42:04.678Z</time>
      </trkpt>
      <trkpt lat="45.77708" lon="3.40462">
        <ele>456.6</ele>
        <time>2025-10-26T21:41:41.678Z</time>
      </trkpt>
      <trkpt lat="45.7771" lon="3.40385">
        <ele>451.2</ele>
        <time>2025-10-26T21:39:38.678Z</time>
      </trkpt>
      <trkpt lat="45.77718" lon="3.40345">
        <ele>447.7</ele>
        <time>2025-10-26T21:38:45.678Z</time>
      </trkpt>
      <trkpt lat="45.77765" lon="3.40226">
        <ele>436.2</ele>
        <time>2025-10-26T21:34:41.678Z</time>
      </trkpt>
      <trkpt lat="45.77746" lon="3.40161">
        <ele>423.5</ele>
        <time>2025-10-26T21:31:31.678Z</time>
      </trkpt>
      <trkpt lat="45.77718" lon="3.40107">
        <ele>412</ele>
        <time>2025-10-26T21:28:44.678Z</time>
      </trkpt>
      <trkpt lat="45.77723" lon="3.40078">
        <ele>408.1</ele>
        <time>2025-10-26T21:27:39.678Z</time>
      </trkpt>
      <trkpt lat="45.77774" lon="3.40031">
        <ele>403.4</ele>
        <time>2025-10-26T21:25:39.678Z</time>
      </trkpt>
      <trkpt lat="45.77793" lon="3.39991">
        <ele>396.9</ele>
        <time>2025-10-26T21:24:09.678Z</time>
      </trkpt>
      <trkpt lat="45.77831" lon="3.39953">
        <ele>391.5</ele>
        <time>2025-10-26T21:22:03.678Z</time>
      </trkpt>
      <trkpt lat="45.77862" lon="3.39941">
        <ele>389.3</ele>
        <time>2025-10-26T21:21:06.678Z</time>
      </trkpt>
      <trkpt lat="45.7792" lon="3.39891">
        <ele>379.8</ele>
        <time>2025-10-26T21:18:16.678Z</time>
      </trkpt>
      <trkpt lat="45.77961" lon="3.39896">
        <ele>385.2</ele>
        <time>2025-10-26T21:17:29.678Z</time>
      </trkpt>
      <trkpt lat="45.78073" lon="3.39894">
        <ele>394</ele>
        <time>2025-10-26T21:15:21.678Z</time>
      </trkpt>
      <trkpt lat="45.78165" lon="3.39882">
        <ele>401.3</ele>
        <time>2025-10-26T21:13:35.678Z</time>
      </trkpt>
      <trkpt lat="45.78231" lon="3.39895">
        <ele>409</ele>
        <time>2025-10-26T21:12:19.678Z</time>
      </trkpt>
      <trkpt lat="45.78315" lon="3.39892">
        <ele>414.3</ele>
        <time>2025-10-26T21:10:42.678Z</time>
      </trkpt>
      <trkpt lat="45.7834" lon="3.39902">
        <ele>417.5</ele>
        <time>2025-10-26T21:10:13.678Z</time>
      </trkpt>
      <trkpt lat="45.7839" lon="3.39854">
        <ele>410.5</ele>
        <time>2025-10-26T21:07:42.678Z</time>
      </trkpt>
      <trkpt lat="45.78429" lon="3.39836">
        <ele>407.6</ele>
        <time>2025-10-26T21:06:35.678Z</time>
      </trkpt>
      <trkpt lat="45.78466" lon="3.39813">
        <ele>401.6</ele>
        <time>2025-10-26T21:04:37.678Z</time>
      </trkpt>
      <trkpt lat="45.78503" lon="3.39808">
        <ele>398.3</ele>
        <time>2025-10-26T21:03:23.678Z</time>
      </trkpt>
      <trkpt lat="45.78499" lon="3.39808">
        <ele>398.5</ele>
        <time>2025-10-26T21:03:18.678Z</time>
      </trkpt>
      <trkpt lat="45.78503" lon="3.39808">
        <ele>398.3</ele>
        <time>2025-10-26T21:03:03.678Z</time>
      </trkpt>
      <trkpt lat="45.78583" lon="3.39838">
        <ele>396.7</ele>
        <time>2025-10-26T21:01:18.678Z</time>
      </trkpt>
      <trkpt lat="45.7862" lon="3.39839">
        <ele>392.9</ele>
        <time>2025-10-26T20:59:44.678Z</time>
      </trkpt>
      <trkpt lat="45.78646" lon="3.39833">
        <ele>389.5</ele>
        <time>2025-10-26T20:58:54.678Z</time>
      </trkpt>
      <trkpt lat="45.78696" lon="3.39799">
        <ele>381.5</ele>
        <time>2025-10-26T20:56:08.678Z</time>
      </trkpt>
      <trkpt lat="45.78814" lon="3.39785">
        <ele>363</ele>
        <time>2025-10-26T20:50:58.678Z</time>
      </trkpt>
      <trkpt lat="45.78834" lon="3.39779">
        <ele>360</ele>
        <time>2025-10-26T20:50:03.678Z</time>
      </trkpt>
      <trkpt lat="45.78866" lon="3.39729">
        <ele>353.4</ele>
        <time>2025-10-26T20:48:07.678Z</time>
      </trkpt>
      <trkpt lat="45.78932" lon="3.3967">
        <ele>345.7</ele>
        <time>2025-10-26T20:45:06.678Z</time>
      </trkpt>
      <trkpt lat="45.78982" lon="3.39637">
        <ele>341.2</ele>
        <time>2025-10-26T20:43:21.678Z</time>
      </trkpt>
      <trkpt lat="45.79067" lon="3.39572">
        <ele>335</ele>
        <time>2025-10-26T20:40:29.678Z</time>
      </trkpt>
      <trkpt lat="45.7911" lon="3.39529">
        <ele>336</ele>
        <time>2025-10-26T20:39:29.678Z</time>
      </trkpt>
      <trkpt lat="45.79161" lon="3.39769">
        <ele>351.1</ele>
        <time>2025-10-26T20:36:09.678Z</time>
      </trkpt>
      <trkpt lat="45.79156" lon="3.39793">
        <ele>352.5</ele>
        <time>2025-10-26T20:35:49.678Z</time>
      </trkpt>
      <trkpt lat="45.79098" lon="3.40025">
        <ele>371.2</ele>
        <time>2025-10-26T20:32:32.678Z</time>
      </trkpt>
      <trkpt lat="45.79167" lon="3.40069">
        <ele>377.5</ele>
        <time>2025-10-26T20:31:06.678Z</time>
      </trkpt>
      <trkpt lat="45.79186" lon="3.40081">
        <ele>379.4</ele>
        <time>2025-10-26T20:30:42.678Z</time>
      </trkpt>
      <trkpt lat="45.7923" lon="3.40081">
        <ele>381.5</ele>
        <time>2025-10-26T20:29:52.678Z</time>
      </trkpt>
      <trkpt lat="45.79263" lon="3.4004">
        <ele>378.9</ele>
        <time>2025-10-26T20:28:31.678Z</time>
      </trkpt>
      <trkpt lat="45.79329" lon="3.39999">
        <ele>385</ele>
        <time>2025-10-26T20:27:09.678Z</time>
      </trkpt>
      <trkpt lat="45.79409" lon="3.39979">
        <ele>393.7</ele>
        <time>2025-10-26T20:25:36.678Z</time>
      </trkpt>
      <trkpt lat="45.79405" lon="3.39945">
        <ele>389.4</ele>
        <time>2025-10-26T20:24:27.678Z</time>
      </trkpt>
      <trkpt lat="45.79409" lon="3.39857">
        <ele>377.6</ele>
        <time>2025-10-26T20:21:14.678Z</time>
      </trkpt>
      <trkpt lat="45.79421" lon="3.39822">
        <ele>374.2</ele>
        <time>2025-10-26T20:20:02.678Z</time>
      </trkpt>
      <trkpt lat="45.79582" lon="3.39724">
        <ele>369.1</ele>
        <time>2025-10-26T20:15:50.678Z</time>
      </trkpt>
      <trkpt lat="45.79692" lon="3.39664">
        <ele>362.7</ele>
        <time>2025-10-26T20:12:24.678Z</time>
      </trkpt>
      <trkpt lat="45.79743" lon="3.39615">
        <ele>357.3</ele>
        <time>2025-10-26T20:10:22.678Z</time>
      </trkpt>
      <trkpt lat="45.7983" lon="3.39546">
        <ele>349.1</ele>
        <time>2025-10-26T20:07:06.678Z</time>
      </trkpt>
      <trkpt lat="45.79871" lon="3.39505">
        <ele>346.1</ele>
        <time>2025-10-26T20:05:48.678Z</time>
      </trkpt>
      <trkpt lat="45.80014" lon="3.39483">
        <ele>343.1</ele>
        <time>2025-10-26T20:02:12.678Z</time>
      </trkpt>
      <trkpt lat="45.80027" lon="3.39486">
        <ele>343</ele>
        <time>2025-10-26T20:01:57.678Z</time>
      </trkpt>
      <trkpt lat="45.80086" lon="3.39532">
        <ele>346.5</ele>
        <time>2025-10-26T20:00:40.678Z</time>
      </trkpt>
      <trkpt lat="45.8011" lon="3.39546">
        <ele>347</ele>
        <time>2025-10-26T20:00:10.678Z</time>
      </trkpt>
      <trkpt lat="45.80125" lon="3.39543">
        <ele>346.1</ele>
        <time>2025-10-26T19:59:43.678Z</time>
      </trkpt>
      <trkpt lat="45.80234" lon="3.39503">
        <ele>340.8</ele>
        <time>2025-10-26T19:56:43.678Z</time>
      </trkpt>
      <trkpt lat="45.80259" lon="3.39488">
        <ele>339.8</ele>
        <time>2025-10-26T19:56:02.678Z</time>
      </trkpt>
      <trkpt lat="45.80281" lon="3.3947">
        <ele>338.8</ele>
        <time>2025-10-26T19:55:22.678Z</time>
      </trkpt>
      <trkpt lat="45.80281" lon="3.3947">
        <ele>338.8</ele>
        <time>2025-10-26T19:55:22.678Z</time>
      </trkpt>
      <trkpt lat="45.80321" lon="3.39441">
        <ele>337.4</ele>
        <time>2025-10-26T19:54:20.678Z</time>
      </trkpt>
      <trkpt lat="45.80375" lon="3.39636">
        <ele>352.3</ele>
        <time>2025-10-26T19:51:32.678Z</time>
      </trkpt>
      <trkpt lat="45.80574" lon="3.39466">
        <ele>348.9</ele>
        <time>2025-10-26T19:46:16.678Z</time>
      </trkpt>
      <trkpt lat="45.80573" lon="3.39501">
        <ele>350.7</ele>
        <time>2025-10-26T19:45:48.678Z</time>
      </trkpt>
      <trkpt lat="45.80578" lon="3.39525">
        <ele>351.7</ele>
        <time>2025-10-26T19:45:27.678Z</time>
      </trkpt>
      <trkpt lat="45.80636" lon="3.39746">
        <ele>354.9</ele>
        <time>2025-10-26T19:42:19.678Z</time>
      </trkpt>
      <trkpt lat="45.80656" lon="3.39808">
        <ele>357.5</ele>
        <time>2025-10-26T19:41:24.678Z</time>
      </trkpt>
      <trkpt lat="45.80658" lon="3.39815">
        <ele>357.9</ele>
        <time>2025-10-26T19:41:18.678Z</time>
      </trkpt>
      <trkpt lat="45.80676" lon="3.39868">
        <ele>361.5</ele>
        <time>2025-10-26T19:40:31.678Z</time>
      </trkpt>
      <trkpt lat="45.80673" lon="3.39911">
        <ele>365.2</ele>
        <time>2025-10-26T19:39:57.678Z</time>
      </trkpt>
      <trkpt lat="45.80679" lon="3.39958">
        <ele>368.8</ele>
        <time>2025-10-26T19:39:19.678Z</time>
      </trkpt>
      <trkpt lat="45.807" lon="3.40008">
        <ele>371.2</ele>
        <time>2025-10-26T19:38:32.678Z</time>
      </trkpt>
      <trkpt lat="45.80701" lon="3.40016">
        <ele>371.7</ele>
        <time>2025-10-26T19:38:26.678Z</time>
      </trkpt>
      <trkpt lat="45.80701" lon="3.40016">
        <ele>371.7</ele>
        <time>2025-10-26T19:38:26.678Z</time>
      </trkpt>
      <trkpt lat="45.80709" lon="3.40058">
        <ele>373</ele>
        <time>2025-10-26T19:37:51.678Z</time>
      </trkpt>
      <trkpt lat="45.81025" lon="3.39911">
        <ele>349.8</ele>
        <time>2025-10-26T19:27:34.678Z</time>
      </trkpt>
      <trkpt lat="45.81145" lon="3.39859">
        <ele>347.9</ele>
        <time>2025-10-26T19:24:50.678Z</time>
      </trkpt>
      <trkpt lat="45.81168" lon="3.39857">
        <ele>347.9</ele>
        <time>2025-10-26T19:24:24.678Z</time>
      </trkpt>
      <trkpt lat="45.81175" lon="3.39846">
        <ele>347.6</ele>
        <time>2025-10-26T19:24:12.678Z</time>
      </trkpt>
      <trkpt lat="45.81189" lon="3.39852">
        <ele>347.9</ele>
        <time>2025-10-26T19:23:55.678Z</time>
      </trkpt>
      <trkpt lat="45.81276" lon="3.39848">
        <ele>348</ele>
        <time>2025-10-26T19:22:05.678Z</time>
      </trkpt>
      <trkpt lat="45.81287" lon="3.39846">
        <ele>347.7</ele>
        <time>2025-10-26T19:21:53.678Z</time>
      </trkpt>
      <trkpt lat="45.81287" lon="3.39846">
        <ele>347.7</ele>
        <time>2025-10-26T19:21:53.678Z</time>
      </trkpt>
      <trkpt lat="45.81298" lon="3.39842">
        <ele>347.3</ele>
        <time>2025-10-26T19:21:40.678Z</time>
      </trkpt>
      <trkpt lat="45.81292" lon="3.39878">
        <ele>347.5</ele>
        <time>2025-10-26T19:21:10.678Z</time>
      </trkpt>
      <trkpt lat="45.81279" lon="3.39925">
        <ele>347.3</ele>
        <time>2025-10-26T19:20:30.678Z</time>
      </trkpt>
      <trkpt lat="45.8128" lon="3.39944">
        <ele>348</ele>
        <time>2025-10-26T19:20:15.678Z</time>
      </trkpt>
      <trkpt lat="45.81289" lon="3.39992">
        <ele>348</ele>
        <time>2025-10-26T19:19:35.678Z</time>
      </trkpt>
      <trkpt lat="45.81292" lon="3.40061">
        <ele>348.6</ele>
        <time>2025-10-26T19:18:40.678Z</time>
      </trkpt>
      <trkpt lat="45.81329" lon="3.40186">
        <ele>345.6</ele>
        <time>2025-10-26T19:16:20.678Z</time>
      </trkpt>
      <trkpt lat="45.81362" lon="3.40229">
        <ele>345.3</ele>
        <time>2025-10-26T19:15:29.678Z</time>
      </trkpt>
      <trkpt lat="45.81348" lon="3.40322">
        <ele>347.8</ele>
        <time>2025-10-26T19:14:13.678Z</time>
      </trkpt>
      <trkpt lat="45.81257" lon="3.40489">
        <ele>350</ele>
        <time>2025-10-26T19:11:24.678Z</time>
      </trkpt>
      <trkpt lat="45.81395" lon="3.40724">
        <ele>349.1</ele>
        <time>2025-10-26T19:07:09.678Z</time>
      </trkpt>
      <trkpt lat="45.81558" lon="3.40856">
        <ele>350</ele>
        <time>2025-10-26T19:03:34.678Z</time>
      </trkpt>
      <trkpt lat="45.81544" lon="3.40874">
        <ele>350.5</ele>
        <time>2025-10-26T19:03:12.678Z</time>
      </trkpt>
      <trkpt lat="45.81379" lon="3.41009">
        <ele>353</ele>
        <time>2025-10-26T18:59:34.678Z</time>
      </trkpt>
      <trkpt lat="45.81305" lon="3.41101">
        <ele>354</ele>
        <time>2025-10-26T18:57:42.678Z</time>
      </trkpt>
      <trkpt lat="45.81079" lon="3.42673">
        <ele>384.2</ele>
        <time>2025-10-26T18:36:21.678Z</time>
      </trkpt>
      <trkpt lat="45.81019" lon="3.42812">
        <ele>393.8</ele>
        <time>2025-10-26T18:34:10.678Z</time>
      </trkpt>
      <trkpt lat="45.80925" lon="3.43031">
        <ele>411.6</ele>
        <time>2025-10-26T18:30:45.678Z</time>
      </trkpt>
      <trkpt lat="45.80915" lon="3.43089">
        <ele>416.4</ele>
        <time>2025-10-26T18:29:57.678Z</time>
      </trkpt>
      <trkpt lat="45.80914" lon="3.43136">
        <ele>418.1</ele>
        <time>2025-10-26T18:29:20.678Z</time>
      </trkpt>
      <trkpt lat="45.80966" lon="3.43113">
        <ele>418</ele>
        <time>2025-10-26T18:28:08.678Z</time>
      </trkpt>
      <trkpt lat="45.8113" lon="3.43109">
        <ele>414.2</ele>
        <time>2025-10-26T18:24:19.678Z</time>
      </trkpt>
      <trkpt lat="45.81292" lon="3.42993">
        <ele>406.8</ele>
        <time>2025-10-26T18:19:39.678Z</time>
      </trkpt>
      <trkpt lat="45.81396" lon="3.43007">
        <ele>406</ele>
        <time>2025-10-26T18:17:29.678Z</time>
      </trkpt>
      <trkpt lat="45.81401" lon="3.42946">
        <ele>405.1</ele>
        <time>2025-10-26T18:16:30.678Z</time>
      </trkpt>
      <trkpt lat="45.81396" lon="3.43007">
        <ele>406</ele>
        <time>2025-10-26T18:15:41.678Z</time>
      </trkpt>
      <trkpt lat="45.8143" lon="3.43144">
        <ele>406</ele>
        <time>2025-10-26T18:13:45.678Z</time>
      </trkpt>
      <trkpt lat="45.81391" lon="3.43186">
        <ele>405.3</ele>
        <time>2025-10-26T18:12:49.678Z</time>
      </trkpt>
      <trkpt lat="45.81391" lon="3.43186">
        <ele>405.3</ele>
        <time>2025-10-26T18:12:49.678Z</time>
      </trkpt>
      <trkpt lat="45.81392" lon="3.43345">
        <ele>400</ele>
        <time>2025-10-26T18:09:40.678Z</time>
      </trkpt>
      <trkpt lat="45.81408" lon="3.43527">
        <ele>395</ele>
        <time>2025-10-26T18:06:32.678Z</time>
      </trkpt>
      <trkpt lat="45.81408" lon="3.43527">
        <ele>395</ele>
        <time>2025-10-26T18:06:32.678Z</time>
      </trkpt>
      <trkpt lat="45.81441" lon="3.43887">
        <ele>386.2</ele>
        <time>2025-10-26T17:59:59.678Z</time>
      </trkpt>
      <trkpt lat="45.81418" lon="3.43912">
        <ele>386.1</ele>
        <time>2025-10-26T17:59:26.678Z</time>
      </trkpt>
      <trkpt lat="45.81418" lon="3.43912">
        <ele>386.1</ele>
        <time>2025-10-26T17:59:26.678Z</time>
      </trkpt>
      <trkpt lat="45.81408" lon="3.4392">
        <ele>386.3</ele>
        <time>2025-10-26T17:59:13.678Z</time>
      </trkpt>
      <trkpt lat="45.81408" lon="3.4392">
        <ele>386.3</ele>
        <time>2025-10-26T17:59:13.678Z</time>
      </trkpt>
      <trkpt lat="45.81404" lon="3.43924">
        <ele>386.3</ele>
        <time>2025-10-26T17:59:07.678Z</time>
      </trkpt>
      <trkpt lat="45.81375" lon="3.43923">
        <ele>386.9</ele>
        <time>2025-10-26T17:58:34.678Z</time>
      </trkpt>
      <trkpt lat="45.81318" lon="3.43915">
        <ele>388.6</ele>
        <time>2025-10-26T17:57:28.678Z</time>
      </trkpt>
      <trkpt lat="45.81336" lon="3.44002">
        <ele>386</ele>
        <time>2025-10-26T17:55:55.678Z</time>
      </trkpt>
      <trkpt lat="45.81336" lon="3.44002">
        <ele>386</ele>
        <time>2025-10-26T17:55:55.678Z</time>
      </trkpt>
      <trkpt lat="45.81333" lon="3.44089">
        <ele>384</ele>
        <time>2025-10-26T17:54:25.678Z</time>
      </trkpt>
      <trkpt lat="45.81334" lon="3.44088">
        <ele>384</ele>
        <time>2025-10-26T17:54:24.678Z</time>
      </trkpt>
      <trkpt lat="45.81334" lon="3.44088">
        <ele>384</ele>
        <time>2025-10-26T17:54:24.678Z</time>
      </trkpt>
      <trkpt lat="45.81337" lon="3.44094">
        <ele>384</ele>
        <time>2025-10-26T17:54:18.678Z</time>
      </trkpt>
      <trkpt lat="45.81375" lon="3.44161">
        <ele>383.1</ele>
        <time>2025-10-26T17:52:59.678Z</time>
      </trkpt>
      <trkpt lat="45.81414" lon="3.4421">
        <ele>382</ele>
        <time>2025-10-26T17:52:00.678Z</time>
      </trkpt>
      <trkpt lat="45.81414" lon="3.4421">
        <ele>382</ele>
        <time>2025-10-26T17:52:00.678Z</time>
      </trkpt>
      <trkpt lat="45.81478" lon="3.44309">
        <ele>381</ele>
        <time>2025-10-26T17:49:52.678Z</time>
      </trkpt>
      <trkpt lat="45.81592" lon="3.44452">
        <ele>379.7</ele>
        <time>2025-10-26T17:46:38.678Z</time>
      </trkpt>
      <trkpt lat="45.81592" lon="3.44452">
        <ele>379.7</ele>
        <time>2025-10-26T17:46:38.678Z</time>
      </trkpt>
      <trkpt lat="45.81621" lon="3.44471">
        <ele>378.7</ele>
        <time>2025-10-26T17:45:51.678Z</time>
      </trkpt>
      <trkpt lat="45.81735" lon="3.44521">
        <ele>376.5</ele>
        <time>2025-10-26T17:43:14.678Z</time>
      </trkpt>
      <trkpt lat="45.81762" lon="3.44526">
        <ele>375.6</ele>
        <time>2025-10-26T17:42:33.678Z</time>
      </trkpt>
    </trkseg>
  </trk>
</gpx>